<?xml version="1.0" encoding="UTF-8" standalone="no" ?>
<gpx xmlns="http://www.topografix.com/GPX/1/1" xmlns:xsi="http://www.w3.org/2001/XMLSchema-instance" xsi:schemaLocation="http://www.topografix.com/GPX/1/1 http://www.topografix.com/GPX/1/1/gpx.xsd" version="1.1" creator="VisuGPX - https://www.visugpx.com">
  <metadata>
    <name>VTT Venelles </name>
    <desc><![CDATA[Sortie sans difficulté ]]></desc>
  </metadata>
  <trk>
    <name><![CDATA[VTT - Venelles]]></name>
    <trkseg>
      <trkpt lat="43.6005" lon="5.48703">
        <ele>364</ele>
        <time>2013-01-10T13:09:30.000Z</time>
      </trkpt>
      <trkpt lat="43.60077" lon="5.48748">
        <ele>364</ele>
        <time>2013-01-10T13:09:51.000Z</time>
      </trkpt>
      <trkpt lat="43.60065" lon="5.48805">
        <ele>365.39999389648</ele>
        <time>2013-01-10T13:10:10.000Z</time>
      </trkpt>
      <trkpt lat="43.60037" lon="5.48859">
        <ele>366.60000610352</ele>
        <time>2013-01-10T13:10:31.000Z</time>
      </trkpt>
      <trkpt lat="43.60017" lon="5.48917">
        <ele>367.79998779297</ele>
        <time>2013-01-10T13:10:50.000Z</time>
      </trkpt>
      <trkpt lat="43.59995" lon="5.48976">
        <ele>369.60000610352</ele>
        <time>2013-01-10T13:11:08.000Z</time>
      </trkpt>
      <trkpt lat="43.59976" lon="5.49035">
        <ele>370.60000610352</ele>
        <time>2013-01-10T13:11:26.000Z</time>
      </trkpt>
      <trkpt lat="43.59938" lon="5.49064">
        <ele>372.39999389648</ele>
        <time>2013-01-10T13:11:43.000Z</time>
      </trkpt>
      <trkpt lat="43.59892" lon="5.4906">
        <ele>372.79998779297</ele>
        <time>2013-01-10T13:11:59.000Z</time>
      </trkpt>
      <trkpt lat="43.59849" lon="5.49032">
        <ele>371.79998779297</ele>
        <time>2013-01-10T13:12:14.000Z</time>
      </trkpt>
      <trkpt lat="43.59803" lon="5.49026">
        <ele>371.60000610352</ele>
        <time>2013-01-10T13:12:32.000Z</time>
      </trkpt>
      <trkpt lat="43.59767" lon="5.48985">
        <ele>370.60000610352</ele>
        <time>2013-01-10T13:13:04.000Z</time>
      </trkpt>
      <trkpt lat="43.59733" lon="5.4894">
        <ele>369.79998779297</ele>
        <time>2013-01-10T13:13:35.000Z</time>
      </trkpt>
      <trkpt lat="43.59692" lon="5.4896">
        <ele>369</ele>
        <time>2013-01-10T13:13:52.000Z</time>
      </trkpt>
      <trkpt lat="43.59652" lon="5.48992">
        <ele>369</ele>
        <time>2013-01-10T13:14:12.000Z</time>
      </trkpt>
      <trkpt lat="43.59619" lon="5.49039">
        <ele>374</ele>
        <time>2013-01-10T13:14:28.000Z</time>
      </trkpt>
      <trkpt lat="43.5959" lon="5.49079">
        <ele>377.60000610352</ele>
        <time>2013-01-10T13:14:47.000Z</time>
      </trkpt>
      <trkpt lat="43.59565" lon="5.49135">
        <ele>382.60000610352</ele>
        <time>2013-01-10T13:15:07.000Z</time>
      </trkpt>
      <trkpt lat="43.59536" lon="5.49185">
        <ele>386.20001220703</ele>
        <time>2013-01-10T13:15:25.000Z</time>
      </trkpt>
      <trkpt lat="43.59498" lon="5.49219">
        <ele>386.39999389648</ele>
        <time>2013-01-10T13:15:41.000Z</time>
      </trkpt>
      <trkpt lat="43.59466" lon="5.49264">
        <ele>384.60000610352</ele>
        <time>2013-01-10T13:15:51.000Z</time>
      </trkpt>
      <trkpt lat="43.59445" lon="5.49322">
        <ele>383.79998779297</ele>
        <time>2013-01-10T13:16:02.000Z</time>
      </trkpt>
      <trkpt lat="43.59426" lon="5.49388">
        <ele>385</ele>
        <time>2013-01-10T13:16:15.000Z</time>
      </trkpt>
      <trkpt lat="43.5941" lon="5.49449">
        <ele>386.60000610352</ele>
        <time>2013-01-10T13:16:29.000Z</time>
      </trkpt>
      <trkpt lat="43.59386" lon="5.49507">
        <ele>386</ele>
        <time>2013-01-10T13:16:42.000Z</time>
      </trkpt>
      <trkpt lat="43.5935" lon="5.49558">
        <ele>383.20001220703</ele>
        <time>2013-01-10T13:16:53.000Z</time>
      </trkpt>
      <trkpt lat="43.59312" lon="5.4961">
        <ele>379.79998779297</ele>
        <time>2013-01-10T13:17:01.000Z</time>
      </trkpt>
      <trkpt lat="43.59285" lon="5.49669">
        <ele>377</ele>
        <time>2013-01-10T13:17:07.000Z</time>
      </trkpt>
      <trkpt lat="43.59279" lon="5.49737">
        <ele>374.20001220703</ele>
        <time>2013-01-10T13:17:13.000Z</time>
      </trkpt>
      <trkpt lat="43.59265" lon="5.49808">
        <ele>370.60000610352</ele>
        <time>2013-01-10T13:17:19.000Z</time>
      </trkpt>
      <trkpt lat="43.59271" lon="5.4987">
        <ele>370.39999389648</ele>
        <time>2013-01-10T13:17:25.000Z</time>
      </trkpt>
      <trkpt lat="43.59274" lon="5.49937">
        <ele>370.39999389648</ele>
        <time>2013-01-10T13:17:33.000Z</time>
      </trkpt>
      <trkpt lat="43.59271" lon="5.5">
        <ele>371.39999389648</ele>
        <time>2013-01-10T13:17:42.000Z</time>
      </trkpt>
      <trkpt lat="43.59247" lon="5.50031">
        <ele>368.39999389648</ele>
        <time>2013-01-10T13:17:52.000Z</time>
      </trkpt>
      <trkpt lat="43.59197" lon="5.5003">
        <ele>365</ele>
        <time>2013-01-10T13:17:59.000Z</time>
      </trkpt>
      <trkpt lat="43.5915" lon="5.50029">
        <ele>363</ele>
        <time>2013-01-10T13:18:05.000Z</time>
      </trkpt>
      <trkpt lat="43.59104" lon="5.50026">
        <ele>363</ele>
        <time>2013-01-10T13:18:12.000Z</time>
      </trkpt>
      <trkpt lat="43.59058" lon="5.50007">
        <ele>362</ele>
        <time>2013-01-10T13:18:20.000Z</time>
      </trkpt>
      <trkpt lat="43.59016" lon="5.49977">
        <ele>360.20001220703</ele>
        <time>2013-01-10T13:18:27.000Z</time>
      </trkpt>
      <trkpt lat="43.58964" lon="5.49976">
        <ele>358.39999389648</ele>
        <time>2013-01-10T13:18:35.000Z</time>
      </trkpt>
      <trkpt lat="43.58915" lon="5.49976">
        <ele>356.20001220703</ele>
        <time>2013-01-10T13:18:42.000Z</time>
      </trkpt>
      <trkpt lat="43.58873" lon="5.49944">
        <ele>353.20001220703</ele>
        <time>2013-01-10T13:18:48.000Z</time>
      </trkpt>
      <trkpt lat="43.58832" lon="5.499">
        <ele>349.39999389648</ele>
        <time>2013-01-10T13:18:54.000Z</time>
      </trkpt>
      <trkpt lat="43.58788" lon="5.49873">
        <ele>346</ele>
        <time>2013-01-10T13:19:01.000Z</time>
      </trkpt>
      <trkpt lat="43.58743" lon="5.49898">
        <ele>346</ele>
        <time>2013-01-10T13:19:08.000Z</time>
      </trkpt>
      <trkpt lat="43.58695" lon="5.49926">
        <ele>343.79998779297</ele>
        <time>2013-01-10T13:19:15.000Z</time>
      </trkpt>
      <trkpt lat="43.58647" lon="5.49947">
        <ele>340.79998779297</ele>
        <time>2013-01-10T13:19:21.000Z</time>
      </trkpt>
      <trkpt lat="43.58603" lon="5.49963">
        <ele>337.60000610352</ele>
        <time>2013-01-10T13:19:28.000Z</time>
      </trkpt>
      <trkpt lat="43.5858" lon="5.50005">
        <ele>337</ele>
        <time>2013-01-10T13:19:36.000Z</time>
      </trkpt>
      <trkpt lat="43.58535" lon="5.50032">
        <ele>339.39999389648</ele>
        <time>2013-01-10T13:19:45.000Z</time>
      </trkpt>
      <trkpt lat="43.58524" lon="5.50093">
        <ele>343.20001220703</ele>
        <time>2013-01-10T13:19:58.000Z</time>
      </trkpt>
      <trkpt lat="43.58504" lon="5.50149">
        <ele>345.39999389648</ele>
        <time>2013-01-10T13:20:14.000Z</time>
      </trkpt>
      <trkpt lat="43.58473" lon="5.50203">
        <ele>344</ele>
        <time>2013-01-10T13:20:29.000Z</time>
      </trkpt>
      <trkpt lat="43.58429" lon="5.50224">
        <ele>343.60000610352</ele>
        <time>2013-01-10T13:20:42.000Z</time>
      </trkpt>
      <trkpt lat="43.58387" lon="5.50252">
        <ele>342.79998779297</ele>
        <time>2013-01-10T13:20:51.000Z</time>
      </trkpt>
      <trkpt lat="43.58346" lon="5.50256">
        <ele>342.79998779297</ele>
        <time>2013-01-10T13:21:02.000Z</time>
      </trkpt>
      <trkpt lat="43.58391" lon="5.50293">
        <ele>342.79998779297</ele>
        <time>2013-01-10T13:21:14.000Z</time>
      </trkpt>
      <trkpt lat="43.58432" lon="5.50322">
        <ele>342.39999389648</ele>
        <time>2013-01-10T13:21:23.000Z</time>
      </trkpt>
      <trkpt lat="43.58477" lon="5.50349">
        <ele>341</ele>
        <time>2013-01-10T13:21:33.000Z</time>
      </trkpt>
      <trkpt lat="43.58476" lon="5.5041">
        <ele>342.39999389648</ele>
        <time>2013-01-10T13:21:43.000Z</time>
      </trkpt>
      <trkpt lat="43.58477" lon="5.50474">
        <ele>341.60000610352</ele>
        <time>2013-01-10T13:21:51.000Z</time>
      </trkpt>
      <trkpt lat="43.58444" lon="5.50512">
        <ele>344</ele>
        <time>2013-01-10T13:22:03.000Z</time>
      </trkpt>
      <trkpt lat="43.58398" lon="5.50531">
        <ele>348.60000610352</ele>
        <time>2013-01-10T13:22:24.000Z</time>
      </trkpt>
      <trkpt lat="43.58352" lon="5.50552">
        <ele>354.20001220703</ele>
        <time>2013-01-10T13:22:46.000Z</time>
      </trkpt>
      <trkpt lat="43.58317" lon="5.50542">
        <ele>357.60000610352</ele>
        <time>2013-01-10T13:23:08.000Z</time>
      </trkpt>
      <trkpt lat="43.58288" lon="5.50502">
        <ele>358.39999389648</ele>
        <time>2013-01-10T13:23:33.000Z</time>
      </trkpt>
      <trkpt lat="43.5825" lon="5.50542">
        <ele>360.79998779297</ele>
        <time>2013-01-10T13:23:54.000Z</time>
      </trkpt>
      <trkpt lat="43.58214" lon="5.50589">
        <ele>360.79998779297</ele>
        <time>2013-01-10T13:24:12.000Z</time>
      </trkpt>
      <trkpt lat="43.58181" lon="5.50638">
        <ele>361.60000610352</ele>
        <time>2013-01-10T13:24:27.000Z</time>
      </trkpt>
      <trkpt lat="43.58155" lon="5.50696">
        <ele>364.60000610352</ele>
        <time>2013-01-10T13:24:43.000Z</time>
      </trkpt>
      <trkpt lat="43.58129" lon="5.50753">
        <ele>367.60000610352</ele>
        <time>2013-01-10T13:24:58.000Z</time>
      </trkpt>
      <trkpt lat="43.58106" lon="5.50811">
        <ele>371.79998779297</ele>
        <time>2013-01-10T13:25:14.000Z</time>
      </trkpt>
      <trkpt lat="43.58086" lon="5.50869">
        <ele>376</ele>
        <time>2013-01-10T13:25:31.000Z</time>
      </trkpt>
      <trkpt lat="43.58065" lon="5.50932">
        <ele>379.79998779297</ele>
        <time>2013-01-10T13:25:49.000Z</time>
      </trkpt>
      <trkpt lat="43.58032" lon="5.5097">
        <ele>382.79998779297</ele>
        <time>2013-01-10T13:26:06.000Z</time>
      </trkpt>
      <trkpt lat="43.57988" lon="5.51001">
        <ele>388.79998779297</ele>
        <time>2013-01-10T13:26:26.000Z</time>
      </trkpt>
      <trkpt lat="43.57948" lon="5.5104">
        <ele>392.60000610352</ele>
        <time>2013-01-10T13:26:50.000Z</time>
      </trkpt>
      <trkpt lat="43.57906" lon="5.51078">
        <ele>398</ele>
        <time>2013-01-10T13:27:13.000Z</time>
      </trkpt>
      <trkpt lat="43.57871" lon="5.51123">
        <ele>394.60000610352</ele>
        <time>2013-01-10T13:27:30.000Z</time>
      </trkpt>
      <trkpt lat="43.57848" lon="5.51178">
        <ele>393.20001220703</ele>
        <time>2013-01-10T13:27:40.000Z</time>
      </trkpt>
      <trkpt lat="43.57829" lon="5.51237">
        <ele>390.79998779297</ele>
        <time>2013-01-10T13:27:54.000Z</time>
      </trkpt>
      <trkpt lat="43.57811" lon="5.51292">
        <ele>392.79998779297</ele>
        <time>2013-01-10T13:28:03.000Z</time>
      </trkpt>
      <trkpt lat="43.5779" lon="5.51346">
        <ele>398.60000610352</ele>
        <time>2013-01-10T13:28:20.000Z</time>
      </trkpt>
      <trkpt lat="43.5776" lon="5.51395">
        <ele>406.39999389648</ele>
        <time>2013-01-10T13:28:40.000Z</time>
      </trkpt>
      <trkpt lat="43.57732" lon="5.51449">
        <ele>413.20001220703</ele>
        <time>2013-01-10T13:29:01.000Z</time>
      </trkpt>
      <trkpt lat="43.57699" lon="5.51495">
        <ele>417.20001220703</ele>
        <time>2013-01-10T13:29:23.000Z</time>
      </trkpt>
      <trkpt lat="43.57685" lon="5.51559">
        <ele>422.39999389648</ele>
        <time>2013-01-10T13:29:47.000Z</time>
      </trkpt>
      <trkpt lat="43.57671" lon="5.51623">
        <ele>426.39999389648</ele>
        <time>2013-01-10T13:30:11.000Z</time>
      </trkpt>
      <trkpt lat="43.57654" lon="5.51684">
        <ele>431.39999389648</ele>
        <time>2013-01-10T13:30:34.000Z</time>
      </trkpt>
      <trkpt lat="43.57652" lon="5.51748">
        <ele>437.79998779297</ele>
        <time>2013-01-10T13:30:56.000Z</time>
      </trkpt>
      <trkpt lat="43.57653" lon="5.51812">
        <ele>443.39999389648</ele>
        <time>2013-01-10T13:31:18.000Z</time>
      </trkpt>
      <trkpt lat="43.57622" lon="5.51865">
        <ele>446.60000610352</ele>
        <time>2013-01-10T13:31:40.000Z</time>
      </trkpt>
      <trkpt lat="43.57589" lon="5.51912">
        <ele>450.20001220703</ele>
        <time>2013-01-10T13:32:01.000Z</time>
      </trkpt>
      <trkpt lat="43.57552" lon="5.51946">
        <ele>452.79998779297</ele>
        <time>2013-01-10T13:32:21.000Z</time>
      </trkpt>
      <trkpt lat="43.57521" lon="5.51995">
        <ele>456</ele>
        <time>2013-01-10T13:32:41.000Z</time>
      </trkpt>
      <trkpt lat="43.57506" lon="5.52057">
        <ele>458</ele>
        <time>2013-01-10T13:33:01.000Z</time>
      </trkpt>
      <trkpt lat="43.57484" lon="5.5211">
        <ele>458.20001220703</ele>
        <time>2013-01-10T13:33:18.000Z</time>
      </trkpt>
      <trkpt lat="43.57473" lon="5.52171">
        <ele>458.39999389648</ele>
        <time>2013-01-10T13:33:35.000Z</time>
      </trkpt>
      <trkpt lat="43.57474" lon="5.52237">
        <ele>460.20001220703</ele>
        <time>2013-01-10T13:33:51.000Z</time>
      </trkpt>
      <trkpt lat="43.57463" lon="5.52302">
        <ele>460.20001220703</ele>
        <time>2013-01-10T13:34:05.000Z</time>
      </trkpt>
      <trkpt lat="43.57437" lon="5.52355">
        <ele>460.20001220703</ele>
        <time>2013-01-10T13:34:17.000Z</time>
      </trkpt>
      <trkpt lat="43.57422" lon="5.52417">
        <ele>462.60000610352</ele>
        <time>2013-01-10T13:34:29.000Z</time>
      </trkpt>
      <trkpt lat="43.57414" lon="5.52479">
        <ele>460.39999389648</ele>
        <time>2013-01-10T13:34:37.000Z</time>
      </trkpt>
      <trkpt lat="43.57408" lon="5.52548">
        <ele>459.79998779297</ele>
        <time>2013-01-10T13:34:45.000Z</time>
      </trkpt>
      <trkpt lat="43.57402" lon="5.52614">
        <ele>460.79998779297</ele>
        <time>2013-01-10T13:34:54.000Z</time>
      </trkpt>
      <trkpt lat="43.57397" lon="5.52677">
        <ele>462</ele>
        <time>2013-01-10T13:35:04.000Z</time>
      </trkpt>
      <trkpt lat="43.57389" lon="5.52744">
        <ele>459.39999389648</ele>
        <time>2013-01-10T13:35:14.000Z</time>
      </trkpt>
      <trkpt lat="43.5738" lon="5.52807">
        <ele>461.39999389648</ele>
        <time>2013-01-10T13:35:23.000Z</time>
      </trkpt>
      <trkpt lat="43.57379" lon="5.52872">
        <ele>465</ele>
        <time>2013-01-10T13:35:34.000Z</time>
      </trkpt>
      <trkpt lat="43.57374" lon="5.52937">
        <ele>469.20001220703</ele>
        <time>2013-01-10T13:35:48.000Z</time>
      </trkpt>
      <trkpt lat="43.57379" lon="5.53002">
        <ele>473.79998779297</ele>
        <time>2013-01-10T13:36:02.000Z</time>
      </trkpt>
      <trkpt lat="43.57378" lon="5.5307">
        <ele>477</ele>
        <time>2013-01-10T13:36:17.000Z</time>
      </trkpt>
      <trkpt lat="43.57381" lon="5.53135">
        <ele>477.39999389648</ele>
        <time>2013-01-10T13:36:31.000Z</time>
      </trkpt>
      <trkpt lat="43.57385" lon="5.53198">
        <ele>477.20001220703</ele>
        <time>2013-01-10T13:36:44.000Z</time>
      </trkpt>
      <trkpt lat="43.5739" lon="5.5326">
        <ele>477.39999389648</ele>
        <time>2013-01-10T13:36:56.000Z</time>
      </trkpt>
      <trkpt lat="43.57384" lon="5.53321">
        <ele>479.20001220703</ele>
        <time>2013-01-10T13:37:08.000Z</time>
      </trkpt>
      <trkpt lat="43.57366" lon="5.5338">
        <ele>478.60000610352</ele>
        <time>2013-01-10T13:37:20.000Z</time>
      </trkpt>
      <trkpt lat="43.57339" lon="5.53434">
        <ele>479</ele>
        <time>2013-01-10T13:37:31.000Z</time>
      </trkpt>
      <trkpt lat="43.57313" lon="5.5349">
        <ele>480.60000610352</ele>
        <time>2013-01-10T13:37:41.000Z</time>
      </trkpt>
      <trkpt lat="43.57284" lon="5.53543">
        <ele>482.79998779297</ele>
        <time>2013-01-10T13:37:52.000Z</time>
      </trkpt>
      <trkpt lat="43.57255" lon="5.53595">
        <ele>488.20001220703</ele>
        <time>2013-01-10T13:38:05.000Z</time>
      </trkpt>
      <trkpt lat="43.57229" lon="5.53649">
        <ele>490.20001220703</ele>
        <time>2013-01-10T13:38:18.000Z</time>
      </trkpt>
      <trkpt lat="43.57207" lon="5.53693">
        <ele>491</ele>
        <time>2013-01-10T13:41:55.000Z</time>
      </trkpt>
      <trkpt lat="43.57179" lon="5.53743">
        <ele>492.60000610352</ele>
        <time>2013-01-10T13:42:10.000Z</time>
      </trkpt>
      <trkpt lat="43.57153" lon="5.53795">
        <ele>494.20001220703</ele>
        <time>2013-01-10T13:42:24.000Z</time>
      </trkpt>
      <trkpt lat="43.57133" lon="5.53853">
        <ele>495</ele>
        <time>2013-01-10T13:42:37.000Z</time>
      </trkpt>
      <trkpt lat="43.57104" lon="5.53907">
        <ele>496</ele>
        <time>2013-01-10T13:42:50.000Z</time>
      </trkpt>
      <trkpt lat="43.57081" lon="5.53963">
        <ele>498.39999389648</ele>
        <time>2013-01-10T13:43:02.000Z</time>
      </trkpt>
      <trkpt lat="43.5707" lon="5.54023">
        <ele>500</ele>
        <time>2013-01-10T13:43:15.000Z</time>
      </trkpt>
      <trkpt lat="43.57063" lon="5.54088">
        <ele>503.39999389648</ele>
        <time>2013-01-10T13:43:29.000Z</time>
      </trkpt>
      <trkpt lat="43.57058" lon="5.54152">
        <ele>506.20001220703</ele>
        <time>2013-01-10T13:43:42.000Z</time>
      </trkpt>
      <trkpt lat="43.57047" lon="5.54217">
        <ele>505.79998779297</ele>
        <time>2013-01-10T13:43:55.000Z</time>
      </trkpt>
      <trkpt lat="43.57022" lon="5.54272">
        <ele>506</ele>
        <time>2013-01-10T13:44:07.000Z</time>
      </trkpt>
      <trkpt lat="43.56993" lon="5.54324">
        <ele>507.79998779297</ele>
        <time>2013-01-10T13:44:19.000Z</time>
      </trkpt>
      <trkpt lat="43.56951" lon="5.54348">
        <ele>507.79998779297</ele>
        <time>2013-01-10T13:44:30.000Z</time>
      </trkpt>
      <trkpt lat="43.56904" lon="5.54362">
        <ele>507.39999389648</ele>
        <time>2013-01-10T13:44:39.000Z</time>
      </trkpt>
      <trkpt lat="43.56858" lon="5.54362">
        <ele>504.39999389648</ele>
        <time>2013-01-10T13:44:47.000Z</time>
      </trkpt>
      <trkpt lat="43.56813" lon="5.54381">
        <ele>501.39999389648</ele>
        <time>2013-01-10T13:44:54.000Z</time>
      </trkpt>
      <trkpt lat="43.5677" lon="5.54418">
        <ele>499</ele>
        <time>2013-01-10T13:45:01.000Z</time>
      </trkpt>
      <trkpt lat="43.56748" lon="5.5448">
        <ele>497</ele>
        <time>2013-01-10T13:45:07.000Z</time>
      </trkpt>
      <trkpt lat="43.56744" lon="5.54545">
        <ele>497.60000610352</ele>
        <time>2013-01-10T13:45:14.000Z</time>
      </trkpt>
      <trkpt lat="43.56733" lon="5.5461">
        <ele>498.60000610352</ele>
        <time>2013-01-10T13:45:23.000Z</time>
      </trkpt>
      <trkpt lat="43.56728" lon="5.54674">
        <ele>500.39999389648</ele>
        <time>2013-01-10T13:45:34.000Z</time>
      </trkpt>
      <trkpt lat="43.56725" lon="5.54737">
        <ele>501.20001220703</ele>
        <time>2013-01-10T13:45:46.000Z</time>
      </trkpt>
      <trkpt lat="43.56728" lon="5.54799">
        <ele>501.60000610352</ele>
        <time>2013-01-10T13:45:58.000Z</time>
      </trkpt>
      <trkpt lat="43.56735" lon="5.54864">
        <ele>501.39999389648</ele>
        <time>2013-01-10T13:46:10.000Z</time>
      </trkpt>
      <trkpt lat="43.56759" lon="5.54921">
        <ele>500.60000610352</ele>
        <time>2013-01-10T13:46:21.000Z</time>
      </trkpt>
      <trkpt lat="43.56781" lon="5.54976">
        <ele>501</ele>
        <time>2013-01-10T13:46:30.000Z</time>
      </trkpt>
      <trkpt lat="43.56796" lon="5.55034">
        <ele>501.60000610352</ele>
        <time>2013-01-10T13:46:41.000Z</time>
      </trkpt>
      <trkpt lat="43.56806" lon="5.55098">
        <ele>502</ele>
        <time>2013-01-10T13:46:53.000Z</time>
      </trkpt>
      <trkpt lat="43.56819" lon="5.55161">
        <ele>502.79998779297</ele>
        <time>2013-01-10T13:47:05.000Z</time>
      </trkpt>
      <trkpt lat="43.56838" lon="5.55223">
        <ele>505</ele>
        <time>2013-01-10T13:47:18.000Z</time>
      </trkpt>
      <trkpt lat="43.56854" lon="5.55284">
        <ele>507.20001220703</ele>
        <time>2013-01-10T13:47:31.000Z</time>
      </trkpt>
      <trkpt lat="43.56869" lon="5.55345">
        <ele>508.79998779297</ele>
        <time>2013-01-10T13:47:44.000Z</time>
      </trkpt>
      <trkpt lat="43.5686" lon="5.55394">
        <ele>508.20001220703</ele>
        <time>2013-01-10T13:47:57.000Z</time>
      </trkpt>
      <trkpt lat="43.56817" lon="5.55404">
        <ele>507.60000610352</ele>
        <time>2013-01-10T13:48:08.000Z</time>
      </trkpt>
      <trkpt lat="43.56772" lon="5.55429">
        <ele>506.60000610352</ele>
        <time>2013-01-10T13:48:18.000Z</time>
      </trkpt>
      <trkpt lat="43.56729" lon="5.55456">
        <ele>506.79998779297</ele>
        <time>2013-01-10T13:48:27.000Z</time>
      </trkpt>
      <trkpt lat="43.56687" lon="5.55482">
        <ele>506.79998779297</ele>
        <time>2013-01-10T13:48:37.000Z</time>
      </trkpt>
      <trkpt lat="43.56654" lon="5.55527">
        <ele>505.79998779297</ele>
        <time>2013-01-10T13:48:45.000Z</time>
      </trkpt>
      <trkpt lat="43.56612" lon="5.5555">
        <ele>503.39999389648</ele>
        <time>2013-01-10T13:48:53.000Z</time>
      </trkpt>
      <trkpt lat="43.56569" lon="5.55577">
        <ele>501.39999389648</ele>
        <time>2013-01-10T13:49:00.000Z</time>
      </trkpt>
      <trkpt lat="43.56532" lon="5.55611">
        <ele>500</ele>
        <time>2013-01-10T13:49:06.000Z</time>
      </trkpt>
      <trkpt lat="43.56487" lon="5.55642">
        <ele>498.79998779297</ele>
        <time>2013-01-10T13:49:13.000Z</time>
      </trkpt>
      <trkpt lat="43.56446" lon="5.55676">
        <ele>498.79998779297</ele>
        <time>2013-01-10T13:49:20.000Z</time>
      </trkpt>
      <trkpt lat="43.56401" lon="5.55683">
        <ele>498</ele>
        <time>2013-01-10T13:49:27.000Z</time>
      </trkpt>
      <trkpt lat="43.56369" lon="5.55728">
        <ele>495.39999389648</ele>
        <time>2013-01-10T13:49:34.000Z</time>
      </trkpt>
      <trkpt lat="43.56344" lon="5.55782">
        <ele>493</ele>
        <time>2013-01-10T13:49:41.000Z</time>
      </trkpt>
      <trkpt lat="43.56347" lon="5.55841">
        <ele>492.60000610352</ele>
        <time>2013-01-10T13:49:50.000Z</time>
      </trkpt>
      <trkpt lat="43.56347" lon="5.55904">
        <ele>493.60000610352</ele>
        <time>2013-01-10T13:50:03.000Z</time>
      </trkpt>
      <trkpt lat="43.56366" lon="5.55963">
        <ele>494.60000610352</ele>
        <time>2013-01-10T13:50:16.000Z</time>
      </trkpt>
      <trkpt lat="43.56382" lon="5.56021">
        <ele>494.79998779297</ele>
        <time>2013-01-10T13:50:30.000Z</time>
      </trkpt>
      <trkpt lat="43.56408" lon="5.56076">
        <ele>495</ele>
        <time>2013-01-10T13:50:44.000Z</time>
      </trkpt>
      <trkpt lat="43.56435" lon="5.56129">
        <ele>496.60000610352</ele>
        <time>2013-01-10T13:50:59.000Z</time>
      </trkpt>
      <trkpt lat="43.56461" lon="5.56185">
        <ele>497.79998779297</ele>
        <time>2013-01-10T13:51:16.000Z</time>
      </trkpt>
      <trkpt lat="43.5647" lon="5.5625">
        <ele>501.39999389648</ele>
        <time>2013-01-10T13:51:34.000Z</time>
      </trkpt>
      <trkpt lat="43.56484" lon="5.56311">
        <ele>505.20001220703</ele>
        <time>2013-01-10T13:51:51.000Z</time>
      </trkpt>
      <trkpt lat="43.56485" lon="5.56373">
        <ele>510.60000610352</ele>
        <time>2013-01-10T13:52:10.000Z</time>
      </trkpt>
      <trkpt lat="43.56503" lon="5.56432">
        <ele>514.40002441406</ele>
        <time>2013-01-10T13:52:32.000Z</time>
      </trkpt>
      <trkpt lat="43.5652" lon="5.5649">
        <ele>519</ele>
        <time>2013-01-10T13:52:56.000Z</time>
      </trkpt>
      <trkpt lat="43.56534" lon="5.56548">
        <ele>523.40002441406</ele>
        <time>2013-01-10T13:53:20.000Z</time>
      </trkpt>
      <trkpt lat="43.56553" lon="5.56606">
        <ele>526.20001220703</ele>
        <time>2013-01-10T13:53:43.000Z</time>
      </trkpt>
      <trkpt lat="43.56568" lon="5.56666">
        <ele>529.59997558594</ele>
        <time>2013-01-10T13:54:04.000Z</time>
      </trkpt>
      <trkpt lat="43.56585" lon="5.56723">
        <ele>532</ele>
        <time>2013-01-10T13:54:23.000Z</time>
      </trkpt>
      <trkpt lat="43.56602" lon="5.56781">
        <ele>536</ele>
        <time>2013-01-10T13:54:43.000Z</time>
      </trkpt>
      <trkpt lat="43.56624" lon="5.56837">
        <ele>536.59997558594</ele>
        <time>2013-01-10T13:55:05.000Z</time>
      </trkpt>
      <trkpt lat="43.56633" lon="5.56898">
        <ele>541.40002441406</ele>
        <time>2013-01-10T13:55:28.000Z</time>
      </trkpt>
      <trkpt lat="43.56643" lon="5.56959">
        <ele>545.79998779297</ele>
        <time>2013-01-10T13:55:53.000Z</time>
      </trkpt>
      <trkpt lat="43.56658" lon="5.57017">
        <ele>547</ele>
        <time>2013-01-10T13:56:16.000Z</time>
      </trkpt>
      <trkpt lat="43.56641" lon="5.57074">
        <ele>554.40002441406</ele>
        <time>2013-01-10T13:56:39.000Z</time>
      </trkpt>
      <trkpt lat="43.56648" lon="5.57134">
        <ele>557</ele>
        <time>2013-01-10T13:56:51.000Z</time>
      </trkpt>
      <trkpt lat="43.56674" lon="5.57185">
        <ele>554.59997558594</ele>
        <time>2013-01-10T13:57:02.000Z</time>
      </trkpt>
      <trkpt lat="43.56665" lon="5.57245">
        <ele>560</ele>
        <time>2013-01-10T13:57:17.000Z</time>
      </trkpt>
      <trkpt lat="43.56627" lon="5.57283">
        <ele>567.20001220703</ele>
        <time>2013-01-10T13:57:34.000Z</time>
      </trkpt>
      <trkpt lat="43.56597" lon="5.5733">
        <ele>570.40002441406</ele>
        <time>2013-01-10T13:57:52.000Z</time>
      </trkpt>
      <trkpt lat="43.56564" lon="5.57375">
        <ele>572</ele>
        <time>2013-01-10T13:58:09.000Z</time>
      </trkpt>
      <trkpt lat="43.56518" lon="5.57384">
        <ele>580.59997558594</ele>
        <time>2013-01-10T13:58:23.000Z</time>
      </trkpt>
      <trkpt lat="43.56495" lon="5.57439">
        <ele>576.79998779297</ele>
        <time>2013-01-10T13:58:33.000Z</time>
      </trkpt>
      <trkpt lat="43.56484" lon="5.57505">
        <ele>568.40002441406</ele>
        <time>2013-01-10T13:58:44.000Z</time>
      </trkpt>
      <trkpt lat="43.56468" lon="5.57565">
        <ele>567.79998779297</ele>
        <time>2013-01-10T13:58:56.000Z</time>
      </trkpt>
      <trkpt lat="43.56457" lon="5.57622">
        <ele>573</ele>
        <time>2013-01-10T14:01:01.000Z</time>
      </trkpt>
      <trkpt lat="43.56475" lon="5.57676">
        <ele>579.40002441406</ele>
        <time>2013-01-10T14:01:20.000Z</time>
      </trkpt>
      <trkpt lat="43.56488" lon="5.57728">
        <ele>580.79998779297</ele>
        <time>2013-01-10T14:01:37.000Z</time>
      </trkpt>
      <trkpt lat="43.56469" lon="5.57761">
        <ele>585.59997558594</ele>
        <time>2013-01-10T14:11:08.000Z</time>
      </trkpt>
      <trkpt lat="43.56442" lon="5.57811">
        <ele>590</ele>
        <time>2013-01-10T14:11:36.000Z</time>
      </trkpt>
      <trkpt lat="43.56412" lon="5.57858">
        <ele>597.20001220703</ele>
        <time>2013-01-10T14:12:01.000Z</time>
      </trkpt>
      <trkpt lat="43.56387" lon="5.57911">
        <ele>601.40002441406</ele>
        <time>2013-01-10T14:12:27.000Z</time>
      </trkpt>
      <trkpt lat="43.56379" lon="5.57973">
        <ele>603.79998779297</ele>
        <time>2013-01-10T14:12:50.000Z</time>
      </trkpt>
      <trkpt lat="43.56345" lon="5.58017">
        <ele>610</ele>
        <time>2013-01-10T14:13:13.000Z</time>
      </trkpt>
      <trkpt lat="43.5631" lon="5.58054">
        <ele>614.79998779297</ele>
        <time>2013-01-10T14:13:35.000Z</time>
      </trkpt>
      <trkpt lat="43.56309" lon="5.58117">
        <ele>613.59997558594</ele>
        <time>2013-01-10T14:13:54.000Z</time>
      </trkpt>
      <trkpt lat="43.56313" lon="5.58178">
        <ele>612</ele>
        <time>2013-01-10T14:14:08.000Z</time>
      </trkpt>
      <trkpt lat="43.56338" lon="5.58235">
        <ele>608.20001220703</ele>
        <time>2013-01-10T14:14:18.000Z</time>
      </trkpt>
      <trkpt lat="43.56369" lon="5.58288">
        <ele>605.20001220703</ele>
        <time>2013-01-10T14:14:26.000Z</time>
      </trkpt>
      <trkpt lat="43.5639" lon="5.58347">
        <ele>602.59997558594</ele>
        <time>2013-01-10T14:14:33.000Z</time>
      </trkpt>
      <trkpt lat="43.56419" lon="5.58394">
        <ele>598.40002441406</ele>
        <time>2013-01-10T14:14:39.000Z</time>
      </trkpt>
      <trkpt lat="43.56442" lon="5.58447">
        <ele>593.40002441406</ele>
        <time>2013-01-10T14:14:45.000Z</time>
      </trkpt>
      <trkpt lat="43.56464" lon="5.58508">
        <ele>592.20001220703</ele>
        <time>2013-01-10T14:14:51.000Z</time>
      </trkpt>
      <trkpt lat="43.56489" lon="5.5857">
        <ele>592.59997558594</ele>
        <time>2013-01-10T14:14:57.000Z</time>
      </trkpt>
      <trkpt lat="43.56519" lon="5.58626">
        <ele>593.79998779297</ele>
        <time>2013-01-10T14:15:04.000Z</time>
      </trkpt>
      <trkpt lat="43.56549" lon="5.5868">
        <ele>595.20001220703</ele>
        <time>2013-01-10T14:15:12.000Z</time>
      </trkpt>
      <trkpt lat="43.56573" lon="5.58731">
        <ele>594.20001220703</ele>
        <time>2013-01-10T14:15:21.000Z</time>
      </trkpt>
      <trkpt lat="43.56597" lon="5.58784">
        <ele>593.59997558594</ele>
        <time>2013-01-10T14:15:30.000Z</time>
      </trkpt>
      <trkpt lat="43.56619" lon="5.58838">
        <ele>593.40002441406</ele>
        <time>2013-01-10T14:15:40.000Z</time>
      </trkpt>
      <trkpt lat="43.56638" lon="5.58898">
        <ele>594.40002441406</ele>
        <time>2013-01-10T14:15:50.000Z</time>
      </trkpt>
      <trkpt lat="43.56667" lon="5.58953">
        <ele>594.59997558594</ele>
        <time>2013-01-10T14:16:00.000Z</time>
      </trkpt>
      <trkpt lat="43.56695" lon="5.59003">
        <ele>593.79998779297</ele>
        <time>2013-01-10T14:16:10.000Z</time>
      </trkpt>
      <trkpt lat="43.56721" lon="5.59053">
        <ele>593.59997558594</ele>
        <time>2013-01-10T14:16:21.000Z</time>
      </trkpt>
      <trkpt lat="43.56753" lon="5.59099">
        <ele>593.79998779297</ele>
        <time>2013-01-10T14:16:32.000Z</time>
      </trkpt>
      <trkpt lat="43.56787" lon="5.59141">
        <ele>594.40002441406</ele>
        <time>2013-01-10T14:16:42.000Z</time>
      </trkpt>
      <trkpt lat="43.56811" lon="5.59193">
        <ele>595</ele>
        <time>2013-01-10T14:16:51.000Z</time>
      </trkpt>
      <trkpt lat="43.56838" lon="5.59246">
        <ele>595.79998779297</ele>
        <time>2013-01-10T14:17:02.000Z</time>
      </trkpt>
      <trkpt lat="43.5686" lon="5.59303">
        <ele>593.79998779297</ele>
        <time>2013-01-10T14:17:13.000Z</time>
      </trkpt>
      <trkpt lat="43.56893" lon="5.5935">
        <ele>592.59997558594</ele>
        <time>2013-01-10T14:17:23.000Z</time>
      </trkpt>
      <trkpt lat="43.56921" lon="5.59406">
        <ele>591.20001220703</ele>
        <time>2013-01-10T14:17:31.000Z</time>
      </trkpt>
      <trkpt lat="43.56952" lon="5.59452">
        <ele>589.40002441406</ele>
        <time>2013-01-10T14:17:38.000Z</time>
      </trkpt>
      <trkpt lat="43.56981" lon="5.59506">
        <ele>587.20001220703</ele>
        <time>2013-01-10T14:17:45.000Z</time>
      </trkpt>
      <trkpt lat="43.57012" lon="5.59559">
        <ele>585.40002441406</ele>
        <time>2013-01-10T14:17:52.000Z</time>
      </trkpt>
      <trkpt lat="43.57027" lon="5.59627">
        <ele>583.20001220703</ele>
        <time>2013-01-10T14:17:59.000Z</time>
      </trkpt>
      <trkpt lat="43.57046" lon="5.59687">
        <ele>581.20001220703</ele>
        <time>2013-01-10T14:18:05.000Z</time>
      </trkpt>
      <trkpt lat="43.57066" lon="5.59745">
        <ele>581</ele>
        <time>2013-01-10T14:18:11.000Z</time>
      </trkpt>
      <trkpt lat="43.57087" lon="5.59802">
        <ele>580.40002441406</ele>
        <time>2013-01-10T14:18:17.000Z</time>
      </trkpt>
      <trkpt lat="43.57108" lon="5.59859">
        <ele>580.20001220703</ele>
        <time>2013-01-10T14:18:24.000Z</time>
      </trkpt>
      <trkpt lat="43.57125" lon="5.59919">
        <ele>579.79998779297</ele>
        <time>2013-01-10T14:18:32.000Z</time>
      </trkpt>
      <trkpt lat="43.57165" lon="5.59949">
        <ele>580.79998779297</ele>
        <time>2013-01-10T14:18:40.000Z</time>
      </trkpt>
      <trkpt lat="43.57211" lon="5.59959">
        <ele>582.79998779297</ele>
        <time>2013-01-10T14:18:49.000Z</time>
      </trkpt>
      <trkpt lat="43.57246" lon="5.60001">
        <ele>582.79998779297</ele>
        <time>2013-01-10T14:18:59.000Z</time>
      </trkpt>
      <trkpt lat="43.57272" lon="5.60056">
        <ele>583.20001220703</ele>
        <time>2013-01-10T14:19:10.000Z</time>
      </trkpt>
      <trkpt lat="43.57292" lon="5.60112">
        <ele>584.79998779297</ele>
        <time>2013-01-10T14:19:20.000Z</time>
      </trkpt>
      <trkpt lat="43.57304" lon="5.60172">
        <ele>587</ele>
        <time>2013-01-10T14:19:30.000Z</time>
      </trkpt>
      <trkpt lat="43.57308" lon="5.60237">
        <ele>586.59997558594</ele>
        <time>2013-01-10T14:19:40.000Z</time>
      </trkpt>
      <trkpt lat="43.57315" lon="5.60299">
        <ele>585.40002441406</ele>
        <time>2013-01-10T14:19:50.000Z</time>
      </trkpt>
      <trkpt lat="43.57333" lon="5.60357">
        <ele>583.40002441406</ele>
        <time>2013-01-10T14:20:00.000Z</time>
      </trkpt>
      <trkpt lat="43.57356" lon="5.60411">
        <ele>581.79998779297</ele>
        <time>2013-01-10T14:20:07.000Z</time>
      </trkpt>
      <trkpt lat="43.57366" lon="5.60473">
        <ele>580</ele>
        <time>2013-01-10T14:20:13.000Z</time>
      </trkpt>
      <trkpt lat="43.57381" lon="5.60533">
        <ele>580</ele>
        <time>2013-01-10T14:20:20.000Z</time>
      </trkpt>
      <trkpt lat="43.5739" lon="5.60599">
        <ele>581.59997558594</ele>
        <time>2013-01-10T14:20:29.000Z</time>
      </trkpt>
      <trkpt lat="43.57405" lon="5.60658">
        <ele>584.79998779297</ele>
        <time>2013-01-10T14:20:39.000Z</time>
      </trkpt>
      <trkpt lat="43.57421" lon="5.60717">
        <ele>585.59997558594</ele>
        <time>2013-01-10T14:20:50.000Z</time>
      </trkpt>
      <trkpt lat="43.5743" lon="5.60778">
        <ele>585.40002441406</ele>
        <time>2013-01-10T14:21:00.000Z</time>
      </trkpt>
      <trkpt lat="43.57432" lon="5.60844">
        <ele>584.40002441406</ele>
        <time>2013-01-10T14:21:10.000Z</time>
      </trkpt>
      <trkpt lat="43.57426" lon="5.6091">
        <ele>584.59997558594</ele>
        <time>2013-01-10T14:21:20.000Z</time>
      </trkpt>
      <trkpt lat="43.5742" lon="5.60975">
        <ele>584</ele>
        <time>2013-01-10T14:21:30.000Z</time>
      </trkpt>
      <trkpt lat="43.57404" lon="5.61042">
        <ele>583</ele>
        <time>2013-01-10T14:21:40.000Z</time>
      </trkpt>
      <trkpt lat="43.57391" lon="5.61103">
        <ele>581.79998779297</ele>
        <time>2013-01-10T14:21:49.000Z</time>
      </trkpt>
      <trkpt lat="43.57378" lon="5.61169">
        <ele>581.20001220703</ele>
        <time>2013-01-10T14:21:58.000Z</time>
      </trkpt>
      <trkpt lat="43.57365" lon="5.6123">
        <ele>580.79998779297</ele>
        <time>2013-01-10T14:22:06.000Z</time>
      </trkpt>
      <trkpt lat="43.57353" lon="5.61296">
        <ele>579.40002441406</ele>
        <time>2013-01-10T14:22:14.000Z</time>
      </trkpt>
      <trkpt lat="43.57347" lon="5.61365">
        <ele>577.20001220703</ele>
        <time>2013-01-10T14:22:22.000Z</time>
      </trkpt>
      <trkpt lat="43.5734" lon="5.61429">
        <ele>576</ele>
        <time>2013-01-10T14:22:29.000Z</time>
      </trkpt>
      <trkpt lat="43.57344" lon="5.61494">
        <ele>571.59997558594</ele>
        <time>2013-01-10T14:22:37.000Z</time>
      </trkpt>
      <trkpt lat="43.5735" lon="5.61562">
        <ele>566.59997558594</ele>
        <time>2013-01-10T14:22:45.000Z</time>
      </trkpt>
      <trkpt lat="43.57356" lon="5.61626">
        <ele>562.40002441406</ele>
        <time>2013-01-10T14:22:52.000Z</time>
      </trkpt>
      <trkpt lat="43.57349" lon="5.61688">
        <ele>560.40002441406</ele>
        <time>2013-01-10T14:23:04.000Z</time>
      </trkpt>
      <trkpt lat="43.57342" lon="5.61724">
        <ele>560.79998779297</ele>
        <time>2013-01-10T14:23:23.000Z</time>
      </trkpt>
      <trkpt lat="43.57368" lon="5.61785">
        <ele>564.59997558594</ele>
        <time>2013-01-10T14:23:57.000Z</time>
      </trkpt>
      <trkpt lat="43.57389" lon="5.61849">
        <ele>567.20001220703</ele>
        <time>2013-01-10T14:24:23.000Z</time>
      </trkpt>
      <trkpt lat="43.57393" lon="5.61913">
        <ele>571.20001220703</ele>
        <time>2013-01-10T14:24:47.000Z</time>
      </trkpt>
      <trkpt lat="43.57391" lon="5.61979">
        <ele>572</ele>
        <time>2013-01-10T14:25:09.000Z</time>
      </trkpt>
      <trkpt lat="43.57379" lon="5.62043">
        <ele>573.59997558594</ele>
        <time>2013-01-10T14:25:26.000Z</time>
      </trkpt>
      <trkpt lat="43.57362" lon="5.62105">
        <ele>575.40002441406</ele>
        <time>2013-01-10T14:25:42.000Z</time>
      </trkpt>
      <trkpt lat="43.5735" lon="5.62166">
        <ele>576</ele>
        <time>2013-01-10T14:25:57.000Z</time>
      </trkpt>
      <trkpt lat="43.57333" lon="5.62228">
        <ele>577.20001220703</ele>
        <time>2013-01-10T14:26:12.000Z</time>
      </trkpt>
      <trkpt lat="43.57317" lon="5.62292">
        <ele>576.79998779297</ele>
        <time>2013-01-10T14:26:26.000Z</time>
      </trkpt>
      <trkpt lat="43.57307" lon="5.62355">
        <ele>577.40002441406</ele>
        <time>2013-01-10T14:26:41.000Z</time>
      </trkpt>
      <trkpt lat="43.57316" lon="5.62412">
        <ele>577.40002441406</ele>
        <time>2013-01-10T14:26:54.000Z</time>
      </trkpt>
      <trkpt lat="43.57289" lon="5.62466">
        <ele>578</ele>
        <time>2013-01-10T14:27:09.000Z</time>
      </trkpt>
      <trkpt lat="43.57258" lon="5.62516">
        <ele>574.59997558594</ele>
        <time>2013-01-10T14:27:20.000Z</time>
      </trkpt>
      <trkpt lat="43.57228" lon="5.62567">
        <ele>567</ele>
        <time>2013-01-10T14:27:29.000Z</time>
      </trkpt>
      <trkpt lat="43.57185" lon="5.62593">
        <ele>564.20001220703</ele>
        <time>2013-01-10T14:27:35.000Z</time>
      </trkpt>
      <trkpt lat="43.57137" lon="5.62605">
        <ele>566.20001220703</ele>
        <time>2013-01-10T14:27:41.000Z</time>
      </trkpt>
      <trkpt lat="43.57093" lon="5.6259">
        <ele>568.59997558594</ele>
        <time>2013-01-10T14:27:52.000Z</time>
      </trkpt>
      <trkpt lat="43.57059" lon="5.62545">
        <ele>569.20001220703</ele>
        <time>2013-01-10T14:28:12.000Z</time>
      </trkpt>
      <trkpt lat="43.57021" lon="5.62505">
        <ele>569.79998779297</ele>
        <time>2013-01-10T14:28:27.000Z</time>
      </trkpt>
      <trkpt lat="43.56979" lon="5.62478">
        <ele>571.20001220703</ele>
        <time>2013-01-10T14:28:50.000Z</time>
      </trkpt>
      <trkpt lat="43.56936" lon="5.62461">
        <ele>572.20001220703</ele>
        <time>2013-01-10T14:29:11.000Z</time>
      </trkpt>
      <trkpt lat="43.56913" lon="5.62517">
        <ele>574.59997558594</ele>
        <time>2013-01-10T14:29:28.000Z</time>
      </trkpt>
      <trkpt lat="43.56903" lon="5.6258">
        <ele>573.40002441406</ele>
        <time>2013-01-10T14:29:44.000Z</time>
      </trkpt>
      <trkpt lat="43.56907" lon="5.62644">
        <ele>575.59997558594</ele>
        <time>2013-01-10T14:29:59.000Z</time>
      </trkpt>
      <trkpt lat="43.56911" lon="5.62708">
        <ele>578.79998779297</ele>
        <time>2013-01-10T14:30:16.000Z</time>
      </trkpt>
      <trkpt lat="43.56907" lon="5.62771">
        <ele>581.20001220703</ele>
        <time>2013-01-10T14:30:35.000Z</time>
      </trkpt>
      <trkpt lat="43.56901" lon="5.62833">
        <ele>585</ele>
        <time>2013-01-10T14:30:56.000Z</time>
      </trkpt>
      <trkpt lat="43.56892" lon="5.62896">
        <ele>589.20001220703</ele>
        <time>2013-01-10T14:31:19.000Z</time>
      </trkpt>
      <trkpt lat="43.56886" lon="5.62959">
        <ele>593.40002441406</ele>
        <time>2013-01-10T14:31:43.000Z</time>
      </trkpt>
      <trkpt lat="43.56877" lon="5.63021">
        <ele>597.40002441406</ele>
        <time>2013-01-10T14:32:07.000Z</time>
      </trkpt>
      <trkpt lat="43.56865" lon="5.63082">
        <ele>602.20001220703</ele>
        <time>2013-01-10T14:32:30.000Z</time>
      </trkpt>
      <trkpt lat="43.56841" lon="5.63138">
        <ele>606.20001220703</ele>
        <time>2013-01-10T14:32:54.000Z</time>
      </trkpt>
      <trkpt lat="43.56829" lon="5.63199">
        <ele>612</ele>
        <time>2013-01-10T14:33:16.000Z</time>
      </trkpt>
      <trkpt lat="43.56807" lon="5.63256">
        <ele>616</ele>
        <time>2013-01-10T14:33:37.000Z</time>
      </trkpt>
      <trkpt lat="43.56787" lon="5.63311">
        <ele>620.79998779297</ele>
        <time>2013-01-10T14:33:58.000Z</time>
      </trkpt>
      <trkpt lat="43.56781" lon="5.63376">
        <ele>626.20001220703</ele>
        <time>2013-01-10T14:34:19.000Z</time>
      </trkpt>
      <trkpt lat="43.56771" lon="5.63438">
        <ele>630.40002441406</ele>
        <time>2013-01-10T14:34:39.000Z</time>
      </trkpt>
      <trkpt lat="43.56752" lon="5.63497">
        <ele>633.79998779297</ele>
        <time>2013-01-10T14:34:57.000Z</time>
      </trkpt>
      <trkpt lat="43.56735" lon="5.63557">
        <ele>635.59997558594</ele>
        <time>2013-01-10T14:35:13.000Z</time>
      </trkpt>
      <trkpt lat="43.56696" lon="5.63591">
        <ele>635.20001220703</ele>
        <time>2013-01-10T14:35:31.000Z</time>
      </trkpt>
      <trkpt lat="43.5667" lon="5.63638">
        <ele>636.40002441406</ele>
        <time>2013-01-10T14:35:50.000Z</time>
      </trkpt>
      <trkpt lat="43.5666" lon="5.63699">
        <ele>638.59997558594</ele>
        <time>2013-01-10T14:36:08.000Z</time>
      </trkpt>
      <trkpt lat="43.56653" lon="5.6376">
        <ele>641.20001220703</ele>
        <time>2013-01-10T14:36:25.000Z</time>
      </trkpt>
      <trkpt lat="43.5665" lon="5.63824">
        <ele>643.59997558594</ele>
        <time>2013-01-10T14:36:42.000Z</time>
      </trkpt>
      <trkpt lat="43.56651" lon="5.63887">
        <ele>648.40002441406</ele>
        <time>2013-01-10T14:36:59.000Z</time>
      </trkpt>
      <trkpt lat="43.56652" lon="5.63954">
        <ele>653.40002441406</ele>
        <time>2013-01-10T14:37:15.000Z</time>
      </trkpt>
      <trkpt lat="43.56655" lon="5.64019">
        <ele>657.40002441406</ele>
        <time>2013-01-10T14:37:30.000Z</time>
      </trkpt>
      <trkpt lat="43.56658" lon="5.64084">
        <ele>658.59997558594</ele>
        <time>2013-01-10T14:37:44.000Z</time>
      </trkpt>
      <trkpt lat="43.56673" lon="5.64144">
        <ele>658.40002441406</ele>
        <time>2013-01-10T14:37:56.000Z</time>
      </trkpt>
      <trkpt lat="43.56692" lon="5.64204">
        <ele>658.20001220703</ele>
        <time>2013-01-10T14:38:06.000Z</time>
      </trkpt>
      <trkpt lat="43.56709" lon="5.64269">
        <ele>657.40002441406</ele>
        <time>2013-01-10T14:38:15.000Z</time>
      </trkpt>
      <trkpt lat="43.56726" lon="5.64332">
        <ele>656</ele>
        <time>2013-01-10T14:38:24.000Z</time>
      </trkpt>
      <trkpt lat="43.56725" lon="5.64396">
        <ele>655.40002441406</ele>
        <time>2013-01-10T14:38:34.000Z</time>
      </trkpt>
      <trkpt lat="43.56724" lon="5.64459">
        <ele>654.79998779297</ele>
        <time>2013-01-10T14:38:46.000Z</time>
      </trkpt>
      <trkpt lat="43.56728" lon="5.64494">
        <ele>654.40002441406</ele>
        <time>2013-01-10T14:41:41.000Z</time>
      </trkpt>
      <trkpt lat="43.56772" lon="5.6451">
        <ele>654.20001220703</ele>
        <time>2013-01-10T14:42:03.000Z</time>
      </trkpt>
      <trkpt lat="43.56816" lon="5.64529">
        <ele>652.59997558594</ele>
        <time>2013-01-10T14:42:17.000Z</time>
      </trkpt>
      <trkpt lat="43.56863" lon="5.64536">
        <ele>649.59997558594</ele>
        <time>2013-01-10T14:42:31.000Z</time>
      </trkpt>
      <trkpt lat="43.56899" lon="5.64495">
        <ele>647.40002441406</ele>
        <time>2013-01-10T14:42:42.000Z</time>
      </trkpt>
      <trkpt lat="43.56937" lon="5.64461">
        <ele>644.79998779297</ele>
        <time>2013-01-10T14:42:54.000Z</time>
      </trkpt>
      <trkpt lat="43.56968" lon="5.64413">
        <ele>642.40002441406</ele>
        <time>2013-01-10T14:43:06.000Z</time>
      </trkpt>
      <trkpt lat="43.5699" lon="5.64357">
        <ele>640.59997558594</ele>
        <time>2013-01-10T14:43:15.000Z</time>
      </trkpt>
      <trkpt lat="43.57005" lon="5.64297">
        <ele>639.20001220703</ele>
        <time>2013-01-10T14:43:22.000Z</time>
      </trkpt>
      <trkpt lat="43.57024" lon="5.64234">
        <ele>634.59997558594</ele>
        <time>2013-01-10T14:43:29.000Z</time>
      </trkpt>
      <trkpt lat="43.57038" lon="5.64168">
        <ele>633.59997558594</ele>
        <time>2013-01-10T14:43:36.000Z</time>
      </trkpt>
      <trkpt lat="43.57057" lon="5.64107">
        <ele>631.59997558594</ele>
        <time>2013-01-10T14:43:42.000Z</time>
      </trkpt>
      <trkpt lat="43.57075" lon="5.64048">
        <ele>629.20001220703</ele>
        <time>2013-01-10T14:43:48.000Z</time>
      </trkpt>
      <trkpt lat="43.57095" lon="5.63988">
        <ele>626</ele>
        <time>2013-01-10T14:43:54.000Z</time>
      </trkpt>
      <trkpt lat="43.57115" lon="5.63924">
        <ele>624.40002441406</ele>
        <time>2013-01-10T14:44:00.000Z</time>
      </trkpt>
      <trkpt lat="43.57128" lon="5.63859">
        <ele>619.59997558594</ele>
        <time>2013-01-10T14:44:06.000Z</time>
      </trkpt>
      <trkpt lat="43.57135" lon="5.63795">
        <ele>616</ele>
        <time>2013-01-10T14:44:12.000Z</time>
      </trkpt>
      <trkpt lat="43.57137" lon="5.63728">
        <ele>614.20001220703</ele>
        <time>2013-01-10T14:44:18.000Z</time>
      </trkpt>
      <trkpt lat="43.57169" lon="5.6369">
        <ele>605</ele>
        <time>2013-01-10T14:44:26.000Z</time>
      </trkpt>
      <trkpt lat="43.57186" lon="5.63631">
        <ele>601.40002441406</ele>
        <time>2013-01-10T14:44:34.000Z</time>
      </trkpt>
      <trkpt lat="43.57207" lon="5.63565">
        <ele>598.40002441406</ele>
        <time>2013-01-10T14:44:42.000Z</time>
      </trkpt>
      <trkpt lat="43.57218" lon="5.63497">
        <ele>596.20001220703</ele>
        <time>2013-01-10T14:44:50.000Z</time>
      </trkpt>
      <trkpt lat="43.57236" lon="5.63439">
        <ele>597</ele>
        <time>2013-01-10T14:44:58.000Z</time>
      </trkpt>
      <trkpt lat="43.57247" lon="5.63372">
        <ele>597.20001220703</ele>
        <time>2013-01-10T14:45:07.000Z</time>
      </trkpt>
      <trkpt lat="43.57257" lon="5.63304">
        <ele>596.59997558594</ele>
        <time>2013-01-10T14:45:16.000Z</time>
      </trkpt>
      <trkpt lat="43.57264" lon="5.63237">
        <ele>596</ele>
        <time>2013-01-10T14:45:25.000Z</time>
      </trkpt>
      <trkpt lat="43.57273" lon="5.63171">
        <ele>595.79998779297</ele>
        <time>2013-01-10T14:45:35.000Z</time>
      </trkpt>
      <trkpt lat="43.57278" lon="5.63105">
        <ele>593.59997558594</ele>
        <time>2013-01-10T14:45:44.000Z</time>
      </trkpt>
      <trkpt lat="43.5729" lon="5.6304">
        <ele>591.79998779297</ele>
        <time>2013-01-10T14:45:52.000Z</time>
      </trkpt>
      <trkpt lat="43.57299" lon="5.62971">
        <ele>588.40002441406</ele>
        <time>2013-01-10T14:45:59.000Z</time>
      </trkpt>
      <trkpt lat="43.57315" lon="5.62904">
        <ele>585.40002441406</ele>
        <time>2013-01-10T14:46:05.000Z</time>
      </trkpt>
      <trkpt lat="43.5732" lon="5.62837">
        <ele>581.40002441406</ele>
        <time>2013-01-10T14:46:12.000Z</time>
      </trkpt>
      <trkpt lat="43.57329" lon="5.62774">
        <ele>576.79998779297</ele>
        <time>2013-01-10T14:46:19.000Z</time>
      </trkpt>
      <trkpt lat="43.57343" lon="5.62714">
        <ele>574.79998779297</ele>
        <time>2013-01-10T14:46:25.000Z</time>
      </trkpt>
      <trkpt lat="43.57343" lon="5.62652">
        <ele>573.40002441406</ele>
        <time>2013-01-10T14:46:31.000Z</time>
      </trkpt>
      <trkpt lat="43.57349" lon="5.62586">
        <ele>575.40002441406</ele>
        <time>2013-01-10T14:46:41.000Z</time>
      </trkpt>
      <trkpt lat="43.57346" lon="5.62522">
        <ele>576.40002441406</ele>
        <time>2013-01-10T14:46:53.000Z</time>
      </trkpt>
      <trkpt lat="43.57338" lon="5.62461">
        <ele>576.20001220703</ele>
        <time>2013-01-10T14:47:02.000Z</time>
      </trkpt>
      <trkpt lat="43.57354" lon="5.62405">
        <ele>575.79998779297</ele>
        <time>2013-01-10T14:47:12.000Z</time>
      </trkpt>
      <trkpt lat="43.57385" lon="5.62357">
        <ele>574.20001220703</ele>
        <time>2013-01-10T14:47:21.000Z</time>
      </trkpt>
      <trkpt lat="43.57414" lon="5.623">
        <ele>572.20001220703</ele>
        <time>2013-01-10T14:47:32.000Z</time>
      </trkpt>
      <trkpt lat="43.57449" lon="5.62263">
        <ele>574</ele>
        <time>2013-01-10T14:47:41.000Z</time>
      </trkpt>
      <trkpt lat="43.57468" lon="5.62209">
        <ele>576.40002441406</ele>
        <time>2013-01-10T14:47:51.000Z</time>
      </trkpt>
      <trkpt lat="43.57455" lon="5.62149">
        <ele>574.20001220703</ele>
        <time>2013-01-10T14:48:00.000Z</time>
      </trkpt>
      <trkpt lat="43.5745" lon="5.6208">
        <ele>571.20001220703</ele>
        <time>2013-01-10T14:48:09.000Z</time>
      </trkpt>
      <trkpt lat="43.57458" lon="5.62013">
        <ele>572</ele>
        <time>2013-01-10T14:48:17.000Z</time>
      </trkpt>
      <trkpt lat="43.57482" lon="5.61954">
        <ele>571.79998779297</ele>
        <time>2013-01-10T14:48:25.000Z</time>
      </trkpt>
      <trkpt lat="43.57497" lon="5.61894">
        <ele>569.79998779297</ele>
        <time>2013-01-10T14:48:36.000Z</time>
      </trkpt>
      <trkpt lat="43.57482" lon="5.61831">
        <ele>566.40002441406</ele>
        <time>2013-01-10T14:49:00.000Z</time>
      </trkpt>
      <trkpt lat="43.57462" lon="5.61772">
        <ele>565.20001220703</ele>
        <time>2013-01-10T14:49:10.000Z</time>
      </trkpt>
      <trkpt lat="43.57449" lon="5.61708">
        <ele>563.20001220703</ele>
        <time>2013-01-10T14:49:23.000Z</time>
      </trkpt>
      <trkpt lat="43.57426" lon="5.61656">
        <ele>559.40002441406</ele>
        <time>2013-01-10T14:49:32.000Z</time>
      </trkpt>
      <trkpt lat="43.57377" lon="5.61645">
        <ele>560.20001220703</ele>
        <time>2013-01-10T14:49:40.000Z</time>
      </trkpt>
      <trkpt lat="43.57357" lon="5.61665">
        <ele>560.20001220703</ele>
        <time>2013-01-10T14:49:59.000Z</time>
      </trkpt>
      <trkpt lat="43.57321" lon="5.61708">
        <ele>560.59997558594</ele>
        <time>2013-01-10T14:50:08.000Z</time>
      </trkpt>
      <trkpt lat="43.57275" lon="5.61688">
        <ele>558.59997558594</ele>
        <time>2013-01-10T14:50:15.000Z</time>
      </trkpt>
      <trkpt lat="43.57233" lon="5.61665">
        <ele>555.59997558594</ele>
        <time>2013-01-10T14:50:22.000Z</time>
      </trkpt>
      <trkpt lat="43.57195" lon="5.61675">
        <ele>554.59997558594</ele>
        <time>2013-01-10T14:50:30.000Z</time>
      </trkpt>
      <trkpt lat="43.57171" lon="5.61716">
        <ele>556.59997558594</ele>
        <time>2013-01-10T14:50:38.000Z</time>
      </trkpt>
      <trkpt lat="43.57145" lon="5.61666">
        <ele>552.40002441406</ele>
        <time>2013-01-10T14:50:45.000Z</time>
      </trkpt>
      <trkpt lat="43.57106" lon="5.6163">
        <ele>554.20001220703</ele>
        <time>2013-01-10T14:50:53.000Z</time>
      </trkpt>
      <trkpt lat="43.57058" lon="5.6162">
        <ele>552.40002441406</ele>
        <time>2013-01-10T14:51:00.000Z</time>
      </trkpt>
      <trkpt lat="43.57011" lon="5.61613">
        <ele>551.59997558594</ele>
        <time>2013-01-10T14:51:06.000Z</time>
      </trkpt>
      <trkpt lat="43.56982" lon="5.61663">
        <ele>543</ele>
        <time>2013-01-10T14:51:12.000Z</time>
      </trkpt>
      <trkpt lat="43.56954" lon="5.61706">
        <ele>541.40002441406</ele>
        <time>2013-01-10T14:51:18.000Z</time>
      </trkpt>
      <trkpt lat="43.56912" lon="5.61665">
        <ele>533.79998779297</ele>
        <time>2013-01-10T14:51:24.000Z</time>
      </trkpt>
      <trkpt lat="43.56864" lon="5.61667">
        <ele>528.20001220703</ele>
        <time>2013-01-10T14:51:30.000Z</time>
      </trkpt>
      <trkpt lat="43.56829" lon="5.61658">
        <ele>526.40002441406</ele>
        <time>2013-01-10T14:55:16.000Z</time>
      </trkpt>
      <trkpt lat="43.56807" lon="5.61606">
        <ele>533.79998779297</ele>
        <time>2013-01-10T14:55:35.000Z</time>
      </trkpt>
      <trkpt lat="43.56782" lon="5.6155">
        <ele>536.20001220703</ele>
        <time>2013-01-10T14:55:51.000Z</time>
      </trkpt>
      <trkpt lat="43.56763" lon="5.61492">
        <ele>534.40002441406</ele>
        <time>2013-01-10T14:56:06.000Z</time>
      </trkpt>
      <trkpt lat="43.56768" lon="5.61428">
        <ele>532.79998779297</ele>
        <time>2013-01-10T14:56:22.000Z</time>
      </trkpt>
      <trkpt lat="43.56787" lon="5.61374">
        <ele>533.40002441406</ele>
        <time>2013-01-10T14:56:37.000Z</time>
      </trkpt>
      <trkpt lat="43.5676" lon="5.61324">
        <ele>532.40002441406</ele>
        <time>2013-01-10T14:56:51.000Z</time>
      </trkpt>
      <trkpt lat="43.56745" lon="5.61264">
        <ele>534.20001220703</ele>
        <time>2013-01-10T14:57:05.000Z</time>
      </trkpt>
      <trkpt lat="43.56772" lon="5.61211">
        <ele>538.79998779297</ele>
        <time>2013-01-10T14:57:18.000Z</time>
      </trkpt>
      <trkpt lat="43.56769" lon="5.6115">
        <ele>542.79998779297</ele>
        <time>2013-01-10T14:57:33.000Z</time>
      </trkpt>
      <trkpt lat="43.56728" lon="5.61119">
        <ele>541.79998779297</ele>
        <time>2013-01-10T14:57:47.000Z</time>
      </trkpt>
      <trkpt lat="43.56688" lon="5.61096">
        <ele>540.40002441406</ele>
        <time>2013-01-10T14:58:01.000Z</time>
      </trkpt>
      <trkpt lat="43.5669" lon="5.6104">
        <ele>541.79998779297</ele>
        <time>2013-01-10T14:58:14.000Z</time>
      </trkpt>
      <trkpt lat="43.56704" lon="5.60983">
        <ele>546</ele>
        <time>2013-01-10T14:58:29.000Z</time>
      </trkpt>
      <trkpt lat="43.56701" lon="5.60916">
        <ele>546.59997558594</ele>
        <time>2013-01-10T14:58:43.000Z</time>
      </trkpt>
      <trkpt lat="43.567" lon="5.60855">
        <ele>550</ele>
        <time>2013-01-10T14:58:58.000Z</time>
      </trkpt>
      <trkpt lat="43.5666" lon="5.60825">
        <ele>547</ele>
        <time>2013-01-10T14:59:12.000Z</time>
      </trkpt>
      <trkpt lat="43.56619" lon="5.60798">
        <ele>549</ele>
        <time>2013-01-10T14:59:26.000Z</time>
      </trkpt>
      <trkpt lat="43.56587" lon="5.6075">
        <ele>546.20001220703</ele>
        <time>2013-01-10T14:59:41.000Z</time>
      </trkpt>
      <trkpt lat="43.56575" lon="5.60688">
        <ele>547.20001220703</ele>
        <time>2013-01-10T14:59:54.000Z</time>
      </trkpt>
      <trkpt lat="43.56603" lon="5.60638">
        <ele>548.59997558594</ele>
        <time>2013-01-10T15:00:08.000Z</time>
      </trkpt>
      <trkpt lat="43.56606" lon="5.6058">
        <ele>549.59997558594</ele>
        <time>2013-01-10T15:00:25.000Z</time>
      </trkpt>
      <trkpt lat="43.56563" lon="5.60556">
        <ele>549.79998779297</ele>
        <time>2013-01-10T15:00:45.000Z</time>
      </trkpt>
      <trkpt lat="43.56522" lon="5.60522">
        <ele>552.79998779297</ele>
        <time>2013-01-10T15:00:59.000Z</time>
      </trkpt>
      <trkpt lat="43.56477" lon="5.60522">
        <ele>554.79998779297</ele>
        <time>2013-01-10T15:01:12.000Z</time>
      </trkpt>
      <trkpt lat="43.56439" lon="5.60503">
        <ele>556.59997558594</ele>
        <time>2013-01-10T15:01:29.000Z</time>
      </trkpt>
      <trkpt lat="43.56455" lon="5.60444">
        <ele>556.79998779297</ele>
        <time>2013-01-10T15:01:45.000Z</time>
      </trkpt>
      <trkpt lat="43.56454" lon="5.6038">
        <ele>558.59997558594</ele>
        <time>2013-01-10T15:02:02.000Z</time>
      </trkpt>
      <trkpt lat="43.56461" lon="5.60318">
        <ele>560.59997558594</ele>
        <time>2013-01-10T15:02:25.000Z</time>
      </trkpt>
      <trkpt lat="43.56459" lon="5.60253">
        <ele>561</ele>
        <time>2013-01-10T15:02:51.000Z</time>
      </trkpt>
      <trkpt lat="43.56457" lon="5.60186">
        <ele>565</ele>
        <time>2013-01-10T15:03:18.000Z</time>
      </trkpt>
      <trkpt lat="43.56461" lon="5.6012">
        <ele>569.59997558594</ele>
        <time>2013-01-10T15:03:44.000Z</time>
      </trkpt>
      <trkpt lat="43.56457" lon="5.60071">
        <ele>571.79998779297</ele>
        <time>2013-01-10T15:04:07.000Z</time>
      </trkpt>
      <trkpt lat="43.56434" lon="5.60018">
        <ele>572.79998779297</ele>
        <time>2013-01-10T15:04:28.000Z</time>
      </trkpt>
      <trkpt lat="43.56426" lon="5.59952">
        <ele>575.79998779297</ele>
        <time>2013-01-10T15:04:50.000Z</time>
      </trkpt>
      <trkpt lat="43.56457" lon="5.59899">
        <ele>579.20001220703</ele>
        <time>2013-01-10T15:05:10.000Z</time>
      </trkpt>
      <trkpt lat="43.56491" lon="5.59855">
        <ele>580.59997558594</ele>
        <time>2013-01-10T15:05:32.000Z</time>
      </trkpt>
      <trkpt lat="43.56496" lon="5.59785">
        <ele>581.20001220703</ele>
        <time>2013-01-10T15:05:54.000Z</time>
      </trkpt>
      <trkpt lat="43.56489" lon="5.59717">
        <ele>580.59997558594</ele>
        <time>2013-01-10T15:06:12.000Z</time>
      </trkpt>
      <trkpt lat="43.56489" lon="5.59646">
        <ele>579.40002441406</ele>
        <time>2013-01-10T15:06:28.000Z</time>
      </trkpt>
      <trkpt lat="43.5649" lon="5.59581">
        <ele>578.59997558594</ele>
        <time>2013-01-10T15:06:41.000Z</time>
      </trkpt>
      <trkpt lat="43.56479" lon="5.59515">
        <ele>577.59997558594</ele>
        <time>2013-01-10T15:06:54.000Z</time>
      </trkpt>
      <trkpt lat="43.56461" lon="5.59456">
        <ele>578</ele>
        <time>2013-01-10T15:07:09.000Z</time>
      </trkpt>
      <trkpt lat="43.56478" lon="5.59393">
        <ele>579.59997558594</ele>
        <time>2013-01-10T15:07:26.000Z</time>
      </trkpt>
      <trkpt lat="43.5647" lon="5.59325">
        <ele>581.79998779297</ele>
        <time>2013-01-10T15:07:44.000Z</time>
      </trkpt>
      <trkpt lat="43.56448" lon="5.5927">
        <ele>583</ele>
        <time>2013-01-10T15:07:59.000Z</time>
      </trkpt>
      <trkpt lat="43.5642" lon="5.59222">
        <ele>583</ele>
        <time>2013-01-10T15:08:13.000Z</time>
      </trkpt>
      <trkpt lat="43.56392" lon="5.59169">
        <ele>582.40002441406</ele>
        <time>2013-01-10T15:08:27.000Z</time>
      </trkpt>
      <trkpt lat="43.56366" lon="5.59114">
        <ele>582</ele>
        <time>2013-01-10T15:08:40.000Z</time>
      </trkpt>
      <trkpt lat="43.56344" lon="5.59061">
        <ele>582.20001220703</ele>
        <time>2013-01-10T15:08:56.000Z</time>
      </trkpt>
      <trkpt lat="43.56375" lon="5.59009">
        <ele>583.40002441406</ele>
        <time>2013-01-10T15:09:13.000Z</time>
      </trkpt>
      <trkpt lat="43.5641" lon="5.58968">
        <ele>584</ele>
        <time>2013-01-10T15:09:28.000Z</time>
      </trkpt>
      <trkpt lat="43.56443" lon="5.58921">
        <ele>584.79998779297</ele>
        <time>2013-01-10T15:09:44.000Z</time>
      </trkpt>
      <trkpt lat="43.56476" lon="5.58873">
        <ele>587</ele>
        <time>2013-01-10T15:10:01.000Z</time>
      </trkpt>
      <trkpt lat="43.5651" lon="5.58823">
        <ele>589.59997558594</ele>
        <time>2013-01-10T15:10:19.000Z</time>
      </trkpt>
      <trkpt lat="43.56543" lon="5.58774">
        <ele>592</ele>
        <time>2013-01-10T15:10:36.000Z</time>
      </trkpt>
      <trkpt lat="43.56571" lon="5.58729">
        <ele>594.40002441406</ele>
        <time>2013-01-10T15:10:55.000Z</time>
      </trkpt>
      <trkpt lat="43.56544" lon="5.58677">
        <ele>595.20001220703</ele>
        <time>2013-01-10T15:11:13.000Z</time>
      </trkpt>
      <trkpt lat="43.56518" lon="5.58627">
        <ele>593.79998779297</ele>
        <time>2013-01-10T15:11:26.000Z</time>
      </trkpt>
      <trkpt lat="43.56491" lon="5.58575">
        <ele>592.79998779297</ele>
        <time>2013-01-10T15:11:39.000Z</time>
      </trkpt>
      <trkpt lat="43.56469" lon="5.58518">
        <ele>592</ele>
        <time>2013-01-10T15:11:53.000Z</time>
      </trkpt>
      <trkpt lat="43.56445" lon="5.58462">
        <ele>593</ele>
        <time>2013-01-10T15:12:08.000Z</time>
      </trkpt>
      <trkpt lat="43.56426" lon="5.58406">
        <ele>596.79998779297</ele>
        <time>2013-01-10T15:12:23.000Z</time>
      </trkpt>
      <trkpt lat="43.56394" lon="5.58361">
        <ele>601.79998779297</ele>
        <time>2013-01-10T15:12:42.000Z</time>
      </trkpt>
      <trkpt lat="43.56373" lon="5.58305">
        <ele>604.79998779297</ele>
        <time>2013-01-10T15:13:01.000Z</time>
      </trkpt>
      <trkpt lat="43.56348" lon="5.58254">
        <ele>607.20001220703</ele>
        <time>2013-01-10T15:13:21.000Z</time>
      </trkpt>
      <trkpt lat="43.56318" lon="5.58204">
        <ele>611</ele>
        <time>2013-01-10T15:13:41.000Z</time>
      </trkpt>
      <trkpt lat="43.56309" lon="5.58142">
        <ele>613.20001220703</ele>
        <time>2013-01-10T15:14:00.000Z</time>
      </trkpt>
      <trkpt lat="43.56305" lon="5.58076">
        <ele>615.20001220703</ele>
        <time>2013-01-10T15:14:16.000Z</time>
      </trkpt>
      <trkpt lat="43.56299" lon="5.58014">
        <ele>617.20001220703</ele>
        <time>2013-01-10T15:14:30.000Z</time>
      </trkpt>
      <trkpt lat="43.56288" lon="5.57951">
        <ele>618.79998779297</ele>
        <time>2013-01-10T15:14:46.000Z</time>
      </trkpt>
      <trkpt lat="43.56265" lon="5.57899">
        <ele>619.40002441406</ele>
        <time>2013-01-10T15:15:04.000Z</time>
      </trkpt>
      <trkpt lat="43.56273" lon="5.57851">
        <ele>612.59997558594</ele>
        <time>2013-01-10T15:15:29.000Z</time>
      </trkpt>
      <trkpt lat="43.56308" lon="5.57806">
        <ele>607.40002441406</ele>
        <time>2013-01-10T15:15:40.000Z</time>
      </trkpt>
      <trkpt lat="43.56344" lon="5.57772">
        <ele>603.59997558594</ele>
        <time>2013-01-10T15:15:50.000Z</time>
      </trkpt>
      <trkpt lat="43.56377" lon="5.57729">
        <ele>594.40002441406</ele>
        <time>2013-01-10T15:16:00.000Z</time>
      </trkpt>
      <trkpt lat="43.56413" lon="5.57687">
        <ele>585</ele>
        <time>2013-01-10T15:16:12.000Z</time>
      </trkpt>
      <trkpt lat="43.56445" lon="5.57643">
        <ele>576</ele>
        <time>2013-01-10T15:16:27.000Z</time>
      </trkpt>
      <trkpt lat="43.56462" lon="5.57587">
        <ele>568.20001220703</ele>
        <time>2013-01-10T15:18:00.000Z</time>
      </trkpt>
      <trkpt lat="43.56478" lon="5.57526">
        <ele>568.20001220703</ele>
        <time>2013-01-10T15:18:09.000Z</time>
      </trkpt>
      <trkpt lat="43.56492" lon="5.57461">
        <ele>573.79998779297</ele>
        <time>2013-01-10T15:18:19.000Z</time>
      </trkpt>
      <trkpt lat="43.56506" lon="5.57402">
        <ele>580.79998779297</ele>
        <time>2013-01-10T15:18:28.000Z</time>
      </trkpt>
      <trkpt lat="43.56544" lon="5.57378">
        <ele>575.59997558594</ele>
        <time>2013-01-10T15:18:38.000Z</time>
      </trkpt>
      <trkpt lat="43.56584" lon="5.5735">
        <ele>570.79998779297</ele>
        <time>2013-01-10T15:18:50.000Z</time>
      </trkpt>
      <trkpt lat="43.56613" lon="5.57297">
        <ele>569.40002441406</ele>
        <time>2013-01-10T15:18:59.000Z</time>
      </trkpt>
      <trkpt lat="43.56655" lon="5.57257">
        <ele>562.40002441406</ele>
        <time>2013-01-10T15:19:07.000Z</time>
      </trkpt>
      <trkpt lat="43.56673" lon="5.57201">
        <ele>555.59997558594</ele>
        <time>2013-01-10T15:19:14.000Z</time>
      </trkpt>
      <trkpt lat="43.5665" lon="5.57144">
        <ele>557.20001220703</ele>
        <time>2013-01-10T15:19:21.000Z</time>
      </trkpt>
      <trkpt lat="43.56637" lon="5.57081">
        <ele>556.20001220703</ele>
        <time>2013-01-10T15:19:28.000Z</time>
      </trkpt>
      <trkpt lat="43.56658" lon="5.57021">
        <ele>547.40002441406</ele>
        <time>2013-01-10T15:19:35.000Z</time>
      </trkpt>
      <trkpt lat="43.56641" lon="5.56961">
        <ele>546.79998779297</ele>
        <time>2013-01-10T15:19:41.000Z</time>
      </trkpt>
      <trkpt lat="43.56629" lon="5.56894">
        <ele>542</ele>
        <time>2013-01-10T15:19:48.000Z</time>
      </trkpt>
      <trkpt lat="43.56619" lon="5.56831">
        <ele>537.40002441406</ele>
        <time>2013-01-10T15:19:54.000Z</time>
      </trkpt>
      <trkpt lat="43.56596" lon="5.56778">
        <ele>537</ele>
        <time>2013-01-10T15:19:59.000Z</time>
      </trkpt>
      <trkpt lat="43.56579" lon="5.56712">
        <ele>532.20001220703</ele>
        <time>2013-01-10T15:20:06.000Z</time>
      </trkpt>
      <trkpt lat="43.56561" lon="5.56645">
        <ele>528.79998779297</ele>
        <time>2013-01-10T15:20:13.000Z</time>
      </trkpt>
      <trkpt lat="43.56543" lon="5.56582">
        <ele>525.40002441406</ele>
        <time>2013-01-10T15:20:19.000Z</time>
      </trkpt>
      <trkpt lat="43.56524" lon="5.56519">
        <ele>522</ele>
        <time>2013-01-10T15:20:25.000Z</time>
      </trkpt>
      <trkpt lat="43.56511" lon="5.56457">
        <ele>516.59997558594</ele>
        <time>2013-01-10T15:20:30.000Z</time>
      </trkpt>
      <trkpt lat="43.56486" lon="5.56398">
        <ele>512.59997558594</ele>
        <time>2013-01-10T15:20:35.000Z</time>
      </trkpt>
      <trkpt lat="43.56483" lon="5.56328">
        <ele>506.60000610352</ele>
        <time>2013-01-10T15:20:40.000Z</time>
      </trkpt>
      <trkpt lat="43.56468" lon="5.56259">
        <ele>502.39999389648</ele>
        <time>2013-01-10T15:20:46.000Z</time>
      </trkpt>
      <trkpt lat="43.56459" lon="5.56189">
        <ele>498.39999389648</ele>
        <time>2013-01-10T15:20:52.000Z</time>
      </trkpt>
      <trkpt lat="43.56433" lon="5.56129">
        <ele>496.79998779297</ele>
        <time>2013-01-10T15:20:58.000Z</time>
      </trkpt>
      <trkpt lat="43.56404" lon="5.56075">
        <ele>495</ele>
        <time>2013-01-10T15:21:04.000Z</time>
      </trkpt>
      <trkpt lat="43.56379" lon="5.56021">
        <ele>495</ele>
        <time>2013-01-10T15:21:13.000Z</time>
      </trkpt>
      <trkpt lat="43.56365" lon="5.55963">
        <ele>494.60000610352</ele>
        <time>2013-01-10T15:21:25.000Z</time>
      </trkpt>
      <trkpt lat="43.56347" lon="5.55905">
        <ele>493.60000610352</ele>
        <time>2013-01-10T15:21:37.000Z</time>
      </trkpt>
      <trkpt lat="43.56348" lon="5.55843">
        <ele>492.60000610352</ele>
        <time>2013-01-10T15:21:50.000Z</time>
      </trkpt>
      <trkpt lat="43.56334" lon="5.55782">
        <ele>492.60000610352</ele>
        <time>2013-01-10T15:22:03.000Z</time>
      </trkpt>
      <trkpt lat="43.56317" lon="5.55722">
        <ele>490</ele>
        <time>2013-01-10T15:22:21.000Z</time>
      </trkpt>
      <trkpt lat="43.56296" lon="5.55664">
        <ele>485.79998779297</ele>
        <time>2013-01-10T15:22:33.000Z</time>
      </trkpt>
      <trkpt lat="43.56302" lon="5.55602">
        <ele>483.60000610352</ele>
        <time>2013-01-10T15:22:41.000Z</time>
      </trkpt>
      <trkpt lat="43.56298" lon="5.55532">
        <ele>482</ele>
        <time>2013-01-10T15:22:50.000Z</time>
      </trkpt>
      <trkpt lat="43.56295" lon="5.55465">
        <ele>482</ele>
        <time>2013-01-10T15:22:58.000Z</time>
      </trkpt>
      <trkpt lat="43.56297" lon="5.55396">
        <ele>482.60000610352</ele>
        <time>2013-01-10T15:23:06.000Z</time>
      </trkpt>
      <trkpt lat="43.56299" lon="5.5533">
        <ele>481.60000610352</ele>
        <time>2013-01-10T15:23:14.000Z</time>
      </trkpt>
      <trkpt lat="43.56314" lon="5.5527">
        <ele>480.60000610352</ele>
        <time>2013-01-10T15:23:22.000Z</time>
      </trkpt>
      <trkpt lat="43.56316" lon="5.55205">
        <ele>477.79998779297</ele>
        <time>2013-01-10T15:23:31.000Z</time>
      </trkpt>
      <trkpt lat="43.56304" lon="5.55142">
        <ele>475.79998779297</ele>
        <time>2013-01-10T15:23:39.000Z</time>
      </trkpt>
      <trkpt lat="43.56276" lon="5.55088">
        <ele>474.79998779297</ele>
        <time>2013-01-10T15:23:49.000Z</time>
      </trkpt>
      <trkpt lat="43.56251" lon="5.55033">
        <ele>474.79998779297</ele>
        <time>2013-01-10T15:23:59.000Z</time>
      </trkpt>
      <trkpt lat="43.5623" lon="5.54971">
        <ele>471</ele>
        <time>2013-01-10T15:24:08.000Z</time>
      </trkpt>
      <trkpt lat="43.56212" lon="5.54905">
        <ele>464.39999389648</ele>
        <time>2013-01-10T15:24:16.000Z</time>
      </trkpt>
      <trkpt lat="43.56214" lon="5.54838">
        <ele>466.39999389648</ele>
        <time>2013-01-10T15:24:25.000Z</time>
      </trkpt>
      <trkpt lat="43.56222" lon="5.54776">
        <ele>470.60000610352</ele>
        <time>2013-01-10T15:24:36.000Z</time>
      </trkpt>
      <trkpt lat="43.56233" lon="5.54715">
        <ele>472.39999389648</ele>
        <time>2013-01-10T15:24:46.000Z</time>
      </trkpt>
      <trkpt lat="43.56241" lon="5.54656">
        <ele>472.39999389648</ele>
        <time>2013-01-10T15:25:20.000Z</time>
      </trkpt>
      <trkpt lat="43.56249" lon="5.54593">
        <ele>473</ele>
        <time>2013-01-10T15:25:34.000Z</time>
      </trkpt>
      <trkpt lat="43.56255" lon="5.54527">
        <ele>473.20001220703</ele>
        <time>2013-01-10T15:25:46.000Z</time>
      </trkpt>
      <trkpt lat="43.56225" lon="5.54479">
        <ele>472</ele>
        <time>2013-01-10T15:25:57.000Z</time>
      </trkpt>
      <trkpt lat="43.56193" lon="5.5443">
        <ele>471.79998779297</ele>
        <time>2013-01-10T15:26:07.000Z</time>
      </trkpt>
      <trkpt lat="43.56159" lon="5.54383">
        <ele>470.79998779297</ele>
        <time>2013-01-10T15:26:16.000Z</time>
      </trkpt>
      <trkpt lat="43.56125" lon="5.54339">
        <ele>469.39999389648</ele>
        <time>2013-01-10T15:26:24.000Z</time>
      </trkpt>
      <trkpt lat="43.56089" lon="5.54298">
        <ele>469.60000610352</ele>
        <time>2013-01-10T15:26:32.000Z</time>
      </trkpt>
      <trkpt lat="43.56058" lon="5.54247">
        <ele>471.60000610352</ele>
        <time>2013-01-10T15:26:40.000Z</time>
      </trkpt>
      <trkpt lat="43.56034" lon="5.54193">
        <ele>471.79998779297</ele>
        <time>2013-01-10T15:26:48.000Z</time>
      </trkpt>
      <trkpt lat="43.56014" lon="5.54136">
        <ele>471.20001220703</ele>
        <time>2013-01-10T15:26:56.000Z</time>
      </trkpt>
      <trkpt lat="43.55987" lon="5.54086">
        <ele>469.39999389648</ele>
        <time>2013-01-10T15:27:04.000Z</time>
      </trkpt>
      <trkpt lat="43.55956" lon="5.54039">
        <ele>470.79998779297</ele>
        <time>2013-01-10T15:27:12.000Z</time>
      </trkpt>
      <trkpt lat="43.55925" lon="5.53985">
        <ele>472.60000610352</ele>
        <time>2013-01-10T15:27:21.000Z</time>
      </trkpt>
      <trkpt lat="43.55896" lon="5.53931">
        <ele>474.20001220703</ele>
        <time>2013-01-10T15:27:33.000Z</time>
      </trkpt>
      <trkpt lat="43.55878" lon="5.5387">
        <ele>473.60000610352</ele>
        <time>2013-01-10T15:27:45.000Z</time>
      </trkpt>
      <trkpt lat="43.55868" lon="5.53803">
        <ele>471.60000610352</ele>
        <time>2013-01-10T15:27:54.000Z</time>
      </trkpt>
      <trkpt lat="43.55857" lon="5.53741">
        <ele>469</ele>
        <time>2013-01-10T15:28:01.000Z</time>
      </trkpt>
      <trkpt lat="43.5584" lon="5.53676">
        <ele>466.20001220703</ele>
        <time>2013-01-10T15:28:08.000Z</time>
      </trkpt>
      <trkpt lat="43.55828" lon="5.53617">
        <ele>463</ele>
        <time>2013-01-10T15:28:14.000Z</time>
      </trkpt>
      <trkpt lat="43.55826" lon="5.53546">
        <ele>461.39999389648</ele>
        <time>2013-01-10T15:28:21.000Z</time>
      </trkpt>
      <trkpt lat="43.55804" lon="5.53484">
        <ele>461.39999389648</ele>
        <time>2013-01-10T15:28:28.000Z</time>
      </trkpt>
      <trkpt lat="43.55781" lon="5.53422">
        <ele>461</ele>
        <time>2013-01-10T15:28:35.000Z</time>
      </trkpt>
      <trkpt lat="43.5577" lon="5.53355">
        <ele>458.79998779297</ele>
        <time>2013-01-10T15:28:42.000Z</time>
      </trkpt>
      <trkpt lat="43.5575" lon="5.533">
        <ele>456.60000610352</ele>
        <time>2013-01-10T15:28:48.000Z</time>
      </trkpt>
      <trkpt lat="43.5574" lon="5.53238">
        <ele>455.39999389648</ele>
        <time>2013-01-10T15:28:54.000Z</time>
      </trkpt>
      <trkpt lat="43.55738" lon="5.53173">
        <ele>456.39999389648</ele>
        <time>2013-01-10T15:29:01.000Z</time>
      </trkpt>
      <trkpt lat="43.55722" lon="5.53108">
        <ele>458.79998779297</ele>
        <time>2013-01-10T15:29:09.000Z</time>
      </trkpt>
      <trkpt lat="43.55711" lon="5.53044">
        <ele>460</ele>
        <time>2013-01-10T15:29:17.000Z</time>
      </trkpt>
      <trkpt lat="43.55703" lon="5.52981">
        <ele>460</ele>
        <time>2013-01-10T15:29:28.000Z</time>
      </trkpt>
      <trkpt lat="43.55692" lon="5.52919">
        <ele>460.39999389648</ele>
        <time>2013-01-10T15:29:37.000Z</time>
      </trkpt>
      <trkpt lat="43.55673" lon="5.52859">
        <ele>461</ele>
        <time>2013-01-10T15:29:46.000Z</time>
      </trkpt>
      <trkpt lat="43.55667" lon="5.52793">
        <ele>460.39999389648</ele>
        <time>2013-01-10T15:29:55.000Z</time>
      </trkpt>
      <trkpt lat="43.55653" lon="5.52729">
        <ele>460.60000610352</ele>
        <time>2013-01-10T15:30:04.000Z</time>
      </trkpt>
      <trkpt lat="43.55639" lon="5.52668">
        <ele>462.20001220703</ele>
        <time>2013-01-10T15:30:13.000Z</time>
      </trkpt>
      <trkpt lat="43.55627" lon="5.52603">
        <ele>464.60000610352</ele>
        <time>2013-01-10T15:30:23.000Z</time>
      </trkpt>
      <trkpt lat="43.55603" lon="5.52545">
        <ele>465.20001220703</ele>
        <time>2013-01-10T15:30:33.000Z</time>
      </trkpt>
      <trkpt lat="43.55582" lon="5.52492">
        <ele>464.60000610352</ele>
        <time>2013-01-10T15:30:42.000Z</time>
      </trkpt>
      <trkpt lat="43.55574" lon="5.5243">
        <ele>462.60000610352</ele>
        <time>2013-01-10T15:30:50.000Z</time>
      </trkpt>
      <trkpt lat="43.55548" lon="5.52374">
        <ele>459.39999389648</ele>
        <time>2013-01-10T15:30:57.000Z</time>
      </trkpt>
      <trkpt lat="43.55529" lon="5.52318">
        <ele>456.79998779297</ele>
        <time>2013-01-10T15:31:03.000Z</time>
      </trkpt>
      <trkpt lat="43.55521" lon="5.52257">
        <ele>453.60000610352</ele>
        <time>2013-01-10T15:31:09.000Z</time>
      </trkpt>
      <trkpt lat="43.55495" lon="5.52204">
        <ele>450.60000610352</ele>
        <time>2013-01-10T15:31:15.000Z</time>
      </trkpt>
      <trkpt lat="43.55475" lon="5.52144">
        <ele>448.20001220703</ele>
        <time>2013-01-10T15:31:21.000Z</time>
      </trkpt>
      <trkpt lat="43.5545" lon="5.52088">
        <ele>446</ele>
        <time>2013-01-10T15:31:27.000Z</time>
      </trkpt>
      <trkpt lat="43.55412" lon="5.52056">
        <ele>443.79998779297</ele>
        <time>2013-01-10T15:31:33.000Z</time>
      </trkpt>
      <trkpt lat="43.55383" lon="5.52005">
        <ele>443</ele>
        <time>2013-01-10T15:31:39.000Z</time>
      </trkpt>
      <trkpt lat="43.55359" lon="5.51948">
        <ele>443.20001220703</ele>
        <time>2013-01-10T15:31:45.000Z</time>
      </trkpt>
      <trkpt lat="43.55341" lon="5.5189">
        <ele>443.20001220703</ele>
        <time>2013-01-10T15:31:51.000Z</time>
      </trkpt>
      <trkpt lat="43.55331" lon="5.51824">
        <ele>442.39999389648</ele>
        <time>2013-01-10T15:31:58.000Z</time>
      </trkpt>
      <trkpt lat="43.55318" lon="5.51758">
        <ele>439</ele>
        <time>2013-01-10T15:32:05.000Z</time>
      </trkpt>
      <trkpt lat="43.55334" lon="5.51704">
        <ele>440.79998779297</ele>
        <time>2013-01-10T15:32:11.000Z</time>
      </trkpt>
      <trkpt lat="43.55367" lon="5.51649">
        <ele>440.79998779297</ele>
        <time>2013-01-10T15:32:18.000Z</time>
      </trkpt>
      <trkpt lat="43.55392" lon="5.51585">
        <ele>441.60000610352</ele>
        <time>2013-01-10T15:32:25.000Z</time>
      </trkpt>
      <trkpt lat="43.55408" lon="5.51522">
        <ele>439.79998779297</ele>
        <time>2013-01-10T15:32:32.000Z</time>
      </trkpt>
      <trkpt lat="43.55388" lon="5.51465">
        <ele>438.39999389648</ele>
        <time>2013-01-10T15:32:39.000Z</time>
      </trkpt>
      <trkpt lat="43.55376" lon="5.51401">
        <ele>437.20001220703</ele>
        <time>2013-01-10T15:32:47.000Z</time>
      </trkpt>
      <trkpt lat="43.55377" lon="5.51335">
        <ele>436.79998779297</ele>
        <time>2013-01-10T15:32:56.000Z</time>
      </trkpt>
      <trkpt lat="43.55367" lon="5.51273">
        <ele>437.39999389648</ele>
        <time>2013-01-10T15:33:05.000Z</time>
      </trkpt>
      <trkpt lat="43.55355" lon="5.51213">
        <ele>437.20001220703</ele>
        <time>2013-01-10T15:33:14.000Z</time>
      </trkpt>
      <trkpt lat="43.55351" lon="5.5115">
        <ele>436.60000610352</ele>
        <time>2013-01-10T15:33:23.000Z</time>
      </trkpt>
      <trkpt lat="43.5535" lon="5.51086">
        <ele>436</ele>
        <time>2013-01-10T15:33:32.000Z</time>
      </trkpt>
      <trkpt lat="43.55349" lon="5.51021">
        <ele>435.20001220703</ele>
        <time>2013-01-10T15:33:41.000Z</time>
      </trkpt>
      <trkpt lat="43.55339" lon="5.50959">
        <ele>432.39999389648</ele>
        <time>2013-01-10T15:33:50.000Z</time>
      </trkpt>
      <trkpt lat="43.55337" lon="5.50893">
        <ele>430</ele>
        <time>2013-01-10T15:34:03.000Z</time>
      </trkpt>
      <trkpt lat="43.55349" lon="5.50826">
        <ele>429.79998779297</ele>
        <time>2013-01-10T15:34:14.000Z</time>
      </trkpt>
      <trkpt lat="43.55369" lon="5.50763">
        <ele>429</ele>
        <time>2013-01-10T15:34:22.000Z</time>
      </trkpt>
      <trkpt lat="43.55394" lon="5.50709">
        <ele>428.20001220703</ele>
        <time>2013-01-10T15:34:30.000Z</time>
      </trkpt>
      <trkpt lat="43.55407" lon="5.50643">
        <ele>427</ele>
        <time>2013-01-10T15:34:38.000Z</time>
      </trkpt>
      <trkpt lat="43.55428" lon="5.50586">
        <ele>425.39999389648</ele>
        <time>2013-01-10T15:34:45.000Z</time>
      </trkpt>
      <trkpt lat="43.55463" lon="5.5054">
        <ele>425.60000610352</ele>
        <time>2013-01-10T15:34:53.000Z</time>
      </trkpt>
      <trkpt lat="43.55497" lon="5.50501">
        <ele>425.79998779297</ele>
        <time>2013-01-10T15:35:07.000Z</time>
      </trkpt>
      <trkpt lat="43.55543" lon="5.50491">
        <ele>426.39999389648</ele>
        <time>2013-01-10T15:35:21.000Z</time>
      </trkpt>
      <trkpt lat="43.55578" lon="5.50448">
        <ele>426.20001220703</ele>
        <time>2013-01-10T15:35:35.000Z</time>
      </trkpt>
      <trkpt lat="43.55607" lon="5.50396">
        <ele>426</ele>
        <time>2013-01-10T15:35:46.000Z</time>
      </trkpt>
      <trkpt lat="43.55633" lon="5.50343">
        <ele>425.60000610352</ele>
        <time>2013-01-10T15:35:56.000Z</time>
      </trkpt>
      <trkpt lat="43.55643" lon="5.50281">
        <ele>425.20001220703</ele>
        <time>2013-01-10T15:36:06.000Z</time>
      </trkpt>
      <trkpt lat="43.55639" lon="5.50214">
        <ele>424.39999389648</ele>
        <time>2013-01-10T15:36:15.000Z</time>
      </trkpt>
      <trkpt lat="43.5566" lon="5.50151">
        <ele>423.60000610352</ele>
        <time>2013-01-10T15:36:24.000Z</time>
      </trkpt>
      <trkpt lat="43.55683" lon="5.50092">
        <ele>423.79998779297</ele>
        <time>2013-01-10T15:36:32.000Z</time>
      </trkpt>
      <trkpt lat="43.55717" lon="5.50046">
        <ele>424.60000610352</ele>
        <time>2013-01-10T15:36:41.000Z</time>
      </trkpt>
      <trkpt lat="43.5574" lon="5.49987">
        <ele>424.79998779297</ele>
        <time>2013-01-10T15:36:50.000Z</time>
      </trkpt>
      <trkpt lat="43.55773" lon="5.49945">
        <ele>425.20001220703</ele>
        <time>2013-01-10T15:36:58.000Z</time>
      </trkpt>
      <trkpt lat="43.55815" lon="5.49923">
        <ele>427</ele>
        <time>2013-01-10T15:37:06.000Z</time>
      </trkpt>
      <trkpt lat="43.5586" lon="5.49916">
        <ele>428.60000610352</ele>
        <time>2013-01-10T15:37:15.000Z</time>
      </trkpt>
      <trkpt lat="43.55907" lon="5.49923">
        <ele>430</ele>
        <time>2013-01-10T15:37:27.000Z</time>
      </trkpt>
      <trkpt lat="43.55952" lon="5.49937">
        <ele>430.79998779297</ele>
        <time>2013-01-10T15:37:39.000Z</time>
      </trkpt>
      <trkpt lat="43.55998" lon="5.49941">
        <ele>431.20001220703</ele>
        <time>2013-01-10T15:37:51.000Z</time>
      </trkpt>
      <trkpt lat="43.56045" lon="5.49931">
        <ele>430.39999389648</ele>
        <time>2013-01-10T15:38:03.000Z</time>
      </trkpt>
      <trkpt lat="43.56091" lon="5.49927">
        <ele>429.79998779297</ele>
        <time>2013-01-10T15:38:13.000Z</time>
      </trkpt>
      <trkpt lat="43.56128" lon="5.49893">
        <ele>429</ele>
        <time>2013-01-10T15:38:22.000Z</time>
      </trkpt>
      <trkpt lat="43.56168" lon="5.49861">
        <ele>428.20001220703</ele>
        <time>2013-01-10T15:38:31.000Z</time>
      </trkpt>
      <trkpt lat="43.56207" lon="5.49831">
        <ele>428.79998779297</ele>
        <time>2013-01-10T15:38:39.000Z</time>
      </trkpt>
      <trkpt lat="43.56237" lon="5.49783">
        <ele>428.60000610352</ele>
        <time>2013-01-10T15:38:48.000Z</time>
      </trkpt>
      <trkpt lat="43.56262" lon="5.49727">
        <ele>429.39999389648</ele>
        <time>2013-01-10T15:38:57.000Z</time>
      </trkpt>
      <trkpt lat="43.56281" lon="5.49665">
        <ele>427.79998779297</ele>
        <time>2013-01-10T15:39:05.000Z</time>
      </trkpt>
      <trkpt lat="43.56301" lon="5.49611">
        <ele>427.20001220703</ele>
        <time>2013-01-10T15:39:12.000Z</time>
      </trkpt>
      <trkpt lat="43.56346" lon="5.49607">
        <ele>430.20001220703</ele>
        <time>2013-01-10T15:39:19.000Z</time>
      </trkpt>
      <trkpt lat="43.56393" lon="5.49591">
        <ele>429.79998779297</ele>
        <time>2013-01-10T15:39:26.000Z</time>
      </trkpt>
      <trkpt lat="43.56441" lon="5.49575">
        <ele>429.79998779297</ele>
        <time>2013-01-10T15:39:34.000Z</time>
      </trkpt>
      <trkpt lat="43.56484" lon="5.49559">
        <ele>429.79998779297</ele>
        <time>2013-01-10T15:39:44.000Z</time>
      </trkpt>
      <trkpt lat="43.56529" lon="5.49573">
        <ele>426.60000610352</ele>
        <time>2013-01-10T15:39:53.000Z</time>
      </trkpt>
      <trkpt lat="43.56565" lon="5.496">
        <ele>423.79998779297</ele>
        <time>2013-01-10T15:40:07.000Z</time>
      </trkpt>
      <trkpt lat="43.5654" lon="5.49656">
        <ele>421.20001220703</ele>
        <time>2013-01-10T15:40:21.000Z</time>
      </trkpt>
      <trkpt lat="43.56494" lon="5.49668">
        <ele>420.60000610352</ele>
        <time>2013-01-10T15:40:29.000Z</time>
      </trkpt>
      <trkpt lat="43.56457" lon="5.49678">
        <ele>420</ele>
        <time>2013-01-10T15:40:36.000Z</time>
      </trkpt>
      <trkpt lat="43.56442" lon="5.4974">
        <ele>416.20001220703</ele>
        <time>2013-01-10T15:40:43.000Z</time>
      </trkpt>
      <trkpt lat="43.5647" lon="5.49794">
        <ele>410.39999389648</ele>
        <time>2013-01-10T15:40:50.000Z</time>
      </trkpt>
      <trkpt lat="43.56472" lon="5.49861">
        <ele>406</ele>
        <time>2013-01-10T15:40:57.000Z</time>
      </trkpt>
      <trkpt lat="43.56438" lon="5.49913">
        <ele>403.39999389648</ele>
        <time>2013-01-10T15:41:04.000Z</time>
      </trkpt>
      <trkpt lat="43.56419" lon="5.4997">
        <ele>399.39999389648</ele>
        <time>2013-01-10T15:41:11.000Z</time>
      </trkpt>
      <trkpt lat="43.56461" lon="5.50004">
        <ele>395.20001220703</ele>
        <time>2013-01-10T15:41:18.000Z</time>
      </trkpt>
      <trkpt lat="43.56502" lon="5.50034">
        <ele>393.79998779297</ele>
        <time>2013-01-10T15:41:24.000Z</time>
      </trkpt>
      <trkpt lat="43.56548" lon="5.50032">
        <ele>390.60000610352</ele>
        <time>2013-01-10T15:41:31.000Z</time>
      </trkpt>
      <trkpt lat="43.56592" lon="5.50045">
        <ele>388.20001220703</ele>
        <time>2013-01-10T15:41:38.000Z</time>
      </trkpt>
      <trkpt lat="43.56638" lon="5.50054">
        <ele>387.39999389648</ele>
        <time>2013-01-10T15:41:45.000Z</time>
      </trkpt>
      <trkpt lat="43.56685" lon="5.50059">
        <ele>387.20001220703</ele>
        <time>2013-01-10T15:41:55.000Z</time>
      </trkpt>
      <trkpt lat="43.5673" lon="5.50052">
        <ele>388.60000610352</ele>
        <time>2013-01-10T15:42:04.000Z</time>
      </trkpt>
      <trkpt lat="43.56778" lon="5.50067">
        <ele>388.39999389648</ele>
        <time>2013-01-10T15:42:16.000Z</time>
      </trkpt>
      <trkpt lat="43.56828" lon="5.50081">
        <ele>387.20001220703</ele>
        <time>2013-01-10T15:42:29.000Z</time>
      </trkpt>
      <trkpt lat="43.56879" lon="5.50071">
        <ele>387.39999389648</ele>
        <time>2013-01-10T15:42:38.000Z</time>
      </trkpt>
      <trkpt lat="43.56925" lon="5.50072">
        <ele>386</ele>
        <time>2013-01-10T15:42:47.000Z</time>
      </trkpt>
      <trkpt lat="43.56975" lon="5.50081">
        <ele>384.39999389648</ele>
        <time>2013-01-10T15:42:56.000Z</time>
      </trkpt>
      <trkpt lat="43.57017" lon="5.50074">
        <ele>382.60000610352</ele>
        <time>2013-01-10T15:43:07.000Z</time>
      </trkpt>
      <trkpt lat="43.57059" lon="5.50047">
        <ele>378.39999389648</ele>
        <time>2013-01-10T15:43:17.000Z</time>
      </trkpt>
      <trkpt lat="43.57105" lon="5.50027">
        <ele>375</ele>
        <time>2013-01-10T15:43:25.000Z</time>
      </trkpt>
      <trkpt lat="43.57139" lon="5.50037">
        <ele>374.20001220703</ele>
        <time>2013-01-10T15:43:46.000Z</time>
      </trkpt>
      <trkpt lat="43.57172" lon="5.5009">
        <ele>367.60000610352</ele>
        <time>2013-01-10T15:44:09.000Z</time>
      </trkpt>
      <trkpt lat="43.57208" lon="5.50132">
        <ele>367</ele>
        <time>2013-01-10T15:44:21.000Z</time>
      </trkpt>
      <trkpt lat="43.57245" lon="5.50176">
        <ele>368.39999389648</ele>
        <time>2013-01-10T15:44:32.000Z</time>
      </trkpt>
      <trkpt lat="43.57282" lon="5.50218">
        <ele>367.60000610352</ele>
        <time>2013-01-10T15:44:42.000Z</time>
      </trkpt>
      <trkpt lat="43.57317" lon="5.50264">
        <ele>365.39999389648</ele>
        <time>2013-01-10T15:44:50.000Z</time>
      </trkpt>
      <trkpt lat="43.57353" lon="5.50309">
        <ele>363.60000610352</ele>
        <time>2013-01-10T15:44:58.000Z</time>
      </trkpt>
      <trkpt lat="43.5739" lon="5.5035">
        <ele>362.79998779297</ele>
        <time>2013-01-10T15:45:06.000Z</time>
      </trkpt>
      <trkpt lat="43.57433" lon="5.50369">
        <ele>362.20001220703</ele>
        <time>2013-01-10T15:45:14.000Z</time>
      </trkpt>
      <trkpt lat="43.57473" lon="5.50405">
        <ele>364.39999389648</ele>
        <time>2013-01-10T15:45:24.000Z</time>
      </trkpt>
      <trkpt lat="43.57502" lon="5.50381">
        <ele>363.60000610352</ele>
        <time>2013-01-10T15:45:41.000Z</time>
      </trkpt>
      <trkpt lat="43.57523" lon="5.50322">
        <ele>361</ele>
        <time>2013-01-10T15:45:55.000Z</time>
      </trkpt>
      <trkpt lat="43.57552" lon="5.50274">
        <ele>359.20001220703</ele>
        <time>2013-01-10T15:46:07.000Z</time>
      </trkpt>
      <trkpt lat="43.57591" lon="5.50242">
        <ele>357.39999389648</ele>
        <time>2013-01-10T15:46:17.000Z</time>
      </trkpt>
      <trkpt lat="43.57631" lon="5.50208">
        <ele>355.20001220703</ele>
        <time>2013-01-10T15:46:27.000Z</time>
      </trkpt>
      <trkpt lat="43.57666" lon="5.50169">
        <ele>353</ele>
        <time>2013-01-10T15:46:37.000Z</time>
      </trkpt>
      <trkpt lat="43.57705" lon="5.50129">
        <ele>353.20001220703</ele>
        <time>2013-01-10T15:46:47.000Z</time>
      </trkpt>
      <trkpt lat="43.57747" lon="5.50093">
        <ele>353</ele>
        <time>2013-01-10T15:46:57.000Z</time>
      </trkpt>
      <trkpt lat="43.57785" lon="5.50053">
        <ele>352.79998779297</ele>
        <time>2013-01-10T15:47:06.000Z</time>
      </trkpt>
      <trkpt lat="43.57827" lon="5.50015">
        <ele>352.39999389648</ele>
        <time>2013-01-10T15:47:15.000Z</time>
      </trkpt>
      <trkpt lat="43.57847" lon="5.49962">
        <ele>351</ele>
        <time>2013-01-10T15:47:24.000Z</time>
      </trkpt>
      <trkpt lat="43.57855" lon="5.49896">
        <ele>349.79998779297</ele>
        <time>2013-01-10T15:47:33.000Z</time>
      </trkpt>
      <trkpt lat="43.57884" lon="5.49843">
        <ele>348.60000610352</ele>
        <time>2013-01-10T15:47:42.000Z</time>
      </trkpt>
      <trkpt lat="43.57918" lon="5.498">
        <ele>348.20001220703</ele>
        <time>2013-01-10T15:47:52.000Z</time>
      </trkpt>
      <trkpt lat="43.57947" lon="5.49749">
        <ele>348.20001220703</ele>
        <time>2013-01-10T15:48:04.000Z</time>
      </trkpt>
      <trkpt lat="43.57977" lon="5.49699">
        <ele>348.60000610352</ele>
        <time>2013-01-10T15:48:15.000Z</time>
      </trkpt>
      <trkpt lat="43.58008" lon="5.49654">
        <ele>348.79998779297</ele>
        <time>2013-01-10T15:48:25.000Z</time>
      </trkpt>
      <trkpt lat="43.58045" lon="5.49609">
        <ele>347.60000610352</ele>
        <time>2013-01-10T15:48:35.000Z</time>
      </trkpt>
      <trkpt lat="43.58083" lon="5.49565">
        <ele>345.39999389648</ele>
        <time>2013-01-10T15:48:45.000Z</time>
      </trkpt>
      <trkpt lat="43.58119" lon="5.49521">
        <ele>343.79998779297</ele>
        <time>2013-01-10T15:48:54.000Z</time>
      </trkpt>
      <trkpt lat="43.58153" lon="5.4948">
        <ele>343.39999389648</ele>
        <time>2013-01-10T15:49:02.000Z</time>
      </trkpt>
      <trkpt lat="43.58192" lon="5.49437">
        <ele>343.20001220703</ele>
        <time>2013-01-10T15:49:11.000Z</time>
      </trkpt>
      <trkpt lat="43.58232" lon="5.49394">
        <ele>343.20001220703</ele>
        <time>2013-01-10T15:49:20.000Z</time>
      </trkpt>
      <trkpt lat="43.58274" lon="5.49356">
        <ele>343.20001220703</ele>
        <time>2013-01-10T15:49:29.000Z</time>
      </trkpt>
      <trkpt lat="43.58316" lon="5.49317">
        <ele>342.60000610352</ele>
        <time>2013-01-10T15:49:38.000Z</time>
      </trkpt>
      <trkpt lat="43.58354" lon="5.49282">
        <ele>341.20001220703</ele>
        <time>2013-01-10T15:49:46.000Z</time>
      </trkpt>
      <trkpt lat="43.58392" lon="5.49245">
        <ele>341.39999389648</ele>
        <time>2013-01-10T15:49:54.000Z</time>
      </trkpt>
      <trkpt lat="43.58427" lon="5.49205">
        <ele>342</ele>
        <time>2013-01-10T15:50:02.000Z</time>
      </trkpt>
      <trkpt lat="43.58465" lon="5.49159">
        <ele>342.39999389648</ele>
        <time>2013-01-10T15:50:11.000Z</time>
      </trkpt>
      <trkpt lat="43.585" lon="5.49115">
        <ele>342.20001220703</ele>
        <time>2013-01-10T15:50:19.000Z</time>
      </trkpt>
      <trkpt lat="43.58533" lon="5.49068">
        <ele>341.20001220703</ele>
        <time>2013-01-10T15:50:27.000Z</time>
      </trkpt>
      <trkpt lat="43.58568" lon="5.49018">
        <ele>340.20001220703</ele>
        <time>2013-01-10T15:50:35.000Z</time>
      </trkpt>
      <trkpt lat="43.58601" lon="5.48969">
        <ele>339.20001220703</ele>
        <time>2013-01-10T15:50:43.000Z</time>
      </trkpt>
      <trkpt lat="43.58633" lon="5.48924">
        <ele>338.60000610352</ele>
        <time>2013-01-10T15:50:53.000Z</time>
      </trkpt>
      <trkpt lat="43.58678" lon="5.4891">
        <ele>339.39999389648</ele>
        <time>2013-01-10T15:51:32.000Z</time>
      </trkpt>
      <trkpt lat="43.58718" lon="5.48874">
        <ele>341</ele>
        <time>2013-01-10T15:51:43.000Z</time>
      </trkpt>
      <trkpt lat="43.5876" lon="5.48845">
        <ele>342.39999389648</ele>
        <time>2013-01-10T15:51:54.000Z</time>
      </trkpt>
      <trkpt lat="43.58801" lon="5.48818">
        <ele>342.39999389648</ele>
        <time>2013-01-10T15:52:04.000Z</time>
      </trkpt>
      <trkpt lat="43.58846" lon="5.48792">
        <ele>343</ele>
        <time>2013-01-10T15:52:14.000Z</time>
      </trkpt>
      <trkpt lat="43.58889" lon="5.48775">
        <ele>345.20001220703</ele>
        <time>2013-01-10T15:52:23.000Z</time>
      </trkpt>
      <trkpt lat="43.58934" lon="5.48766">
        <ele>347.60000610352</ele>
        <time>2013-01-10T15:52:32.000Z</time>
      </trkpt>
      <trkpt lat="43.58977" lon="5.48744">
        <ele>348.20001220703</ele>
        <time>2013-01-10T15:52:41.000Z</time>
      </trkpt>
      <trkpt lat="43.59016" lon="5.48706">
        <ele>346.79998779297</ele>
        <time>2013-01-10T15:52:50.000Z</time>
      </trkpt>
      <trkpt lat="43.59057" lon="5.48665">
        <ele>344.60000610352</ele>
        <time>2013-01-10T15:52:59.000Z</time>
      </trkpt>
      <trkpt lat="43.59093" lon="5.48624">
        <ele>344.20001220703</ele>
        <time>2013-01-10T15:53:07.000Z</time>
      </trkpt>
      <trkpt lat="43.59122" lon="5.48572">
        <ele>345</ele>
        <time>2013-01-10T15:53:15.000Z</time>
      </trkpt>
      <trkpt lat="43.59152" lon="5.48519">
        <ele>345.39999389648</ele>
        <time>2013-01-10T15:53:23.000Z</time>
      </trkpt>
      <trkpt lat="43.5919" lon="5.48483">
        <ele>345.60000610352</ele>
        <time>2013-01-10T15:53:31.000Z</time>
      </trkpt>
      <trkpt lat="43.59234" lon="5.48456">
        <ele>345.60000610352</ele>
        <time>2013-01-10T15:53:41.000Z</time>
      </trkpt>
      <trkpt lat="43.59274" lon="5.48426">
        <ele>344.79998779297</ele>
        <time>2013-01-10T15:53:51.000Z</time>
      </trkpt>
      <trkpt lat="43.5931" lon="5.48389">
        <ele>344.20001220703</ele>
        <time>2013-01-10T15:54:02.000Z</time>
      </trkpt>
      <trkpt lat="43.59346" lon="5.48343">
        <ele>344.79998779297</ele>
        <time>2013-01-10T15:54:14.000Z</time>
      </trkpt>
      <trkpt lat="43.59376" lon="5.4829">
        <ele>345.20001220703</ele>
        <time>2013-01-10T15:54:24.000Z</time>
      </trkpt>
      <trkpt lat="43.59407" lon="5.48245">
        <ele>346.60000610352</ele>
        <time>2013-01-10T15:54:35.000Z</time>
      </trkpt>
      <trkpt lat="43.59452" lon="5.48241">
        <ele>348.79998779297</ele>
        <time>2013-01-10T15:54:45.000Z</time>
      </trkpt>
      <trkpt lat="43.59493" lon="5.48274">
        <ele>350.20001220703</ele>
        <time>2013-01-10T15:54:54.000Z</time>
      </trkpt>
      <trkpt lat="43.59533" lon="5.48313">
        <ele>353</ele>
        <time>2013-01-10T15:55:05.000Z</time>
      </trkpt>
      <trkpt lat="43.59568" lon="5.48356">
        <ele>355</ele>
        <time>2013-01-10T15:55:16.000Z</time>
      </trkpt>
      <trkpt lat="43.59605" lon="5.48396">
        <ele>356</ele>
        <time>2013-01-10T15:55:27.000Z</time>
      </trkpt>
      <trkpt lat="43.59647" lon="5.4843">
        <ele>357.39999389648</ele>
        <time>2013-01-10T15:55:39.000Z</time>
      </trkpt>
      <trkpt lat="43.5969" lon="5.48462">
        <ele>358</ele>
        <time>2013-01-10T15:55:51.000Z</time>
      </trkpt>
      <trkpt lat="43.59735" lon="5.48493">
        <ele>358</ele>
        <time>2013-01-10T15:56:05.000Z</time>
      </trkpt>
      <trkpt lat="43.5978" lon="5.48509">
        <ele>358</ele>
        <time>2013-01-10T15:56:17.000Z</time>
      </trkpt>
      <trkpt lat="43.59779" lon="5.48576">
        <ele>356.39999389648</ele>
        <time>2013-01-10T15:56:28.000Z</time>
      </trkpt>
      <trkpt lat="43.59776" lon="5.4864">
        <ele>356.20001220703</ele>
        <time>2013-01-10T15:56:38.000Z</time>
      </trkpt>
      <trkpt lat="43.59763" lon="5.48702">
        <ele>358</ele>
        <time>2013-01-10T15:56:56.000Z</time>
      </trkpt>
      <trkpt lat="43.59798" lon="5.48731">
        <ele>359</ele>
        <time>2013-01-10T15:57:12.000Z</time>
      </trkpt>
      <trkpt lat="43.59836" lon="5.48765">
        <ele>359.79998779297</ele>
        <time>2013-01-10T15:57:25.000Z</time>
      </trkpt>
      <trkpt lat="43.59878" lon="5.48808">
        <ele>363</ele>
        <time>2013-01-10T15:57:34.000Z</time>
      </trkpt>
      <trkpt lat="43.59913" lon="5.48842">
        <ele>365.20001220703</ele>
        <time>2013-01-10T15:57:41.000Z</time>
      </trkpt>
    </trkseg>
  </trk>
</gpx>